<?xml version="1.0" encoding="UTF-8"?>
<gpx xmlns="http://www.topografix.com/GPX/1/0" version="1.0" creator="ViewRanger - http://www.viewranger.com" xmlns:xsi="http://www.w3.org/2001/XMLSchema-instance" xsi:schemaLocation="http://www.topografix.com/GPX/1/0 http://www.topografix.com/GPX/1/0/gpx.xsd">
  <trk>
    <name><![CDATA[Happy vättlefjäll 27 jan 2013]]></name>
    <trkseg>
      <trkpt lat="57.813797" lon="12.052785">
        <ele>98.0</ele>
        <time>2013-01-27T09:07:50Z</time>
      </trkpt>
      <trkpt lat="57.813728" lon="12.052881">
        <ele>101.0</ele>
        <time>2013-01-27T09:12:05Z</time>
      </trkpt>
      <trkpt lat="57.813666" lon="12.052763">
        <ele>101.0</ele>
        <time>2013-01-27T09:12:15Z</time>
      </trkpt>
      <trkpt lat="57.813621" lon="12.052892">
        <ele>100.0</ele>
        <time>2013-01-27T09:12:24Z</time>
      </trkpt>
      <trkpt lat="57.813653" lon="12.053223">
        <ele>99.0</ele>
        <time>2013-01-27T09:12:29Z</time>
      </trkpt>
      <trkpt lat="57.813563" lon="12.053517">
        <ele>100.0</ele>
        <time>2013-01-27T09:12:33Z</time>
      </trkpt>
      <trkpt lat="57.813431" lon="12.053645">
        <ele>100.0</ele>
        <time>2013-01-27T09:12:37Z</time>
      </trkpt>
      <trkpt lat="57.813282" lon="12.053737">
        <ele>99.0</ele>
        <time>2013-01-27T09:12:41Z</time>
      </trkpt>
      <trkpt lat="57.813079" lon="12.053902">
        <ele>98.0</ele>
        <time>2013-01-27T09:12:46Z</time>
      </trkpt>
      <trkpt lat="57.812899" lon="12.054037">
        <ele>98.0</ele>
        <time>2013-01-27T09:12:50Z</time>
      </trkpt>
      <trkpt lat="57.812658" lon="12.054344">
        <ele>97.0</ele>
        <time>2013-01-27T09:12:54Z</time>
      </trkpt>
      <trkpt lat="57.812444" lon="12.054879">
        <ele>99.0</ele>
        <time>2013-01-27T09:12:59Z</time>
      </trkpt>
      <trkpt lat="57.812484" lon="12.055152">
        <ele>98.0</ele>
        <time>2013-01-27T09:13:04Z</time>
      </trkpt>
      <trkpt lat="57.81256" lon="12.055274">
        <ele>97.0</ele>
        <time>2013-01-27T09:13:08Z</time>
      </trkpt>
      <trkpt lat="57.812693" lon="12.055494">
        <ele>97.0</ele>
        <time>2013-01-27T09:13:13Z</time>
      </trkpt>
      <trkpt lat="57.812821" lon="12.055735">
        <ele>97.0</ele>
        <time>2013-01-27T09:13:17Z</time>
      </trkpt>
      <trkpt lat="57.81299" lon="12.05607">
        <ele>96.0</ele>
        <time>2013-01-27T09:13:22Z</time>
      </trkpt>
      <trkpt lat="57.813099" lon="12.056317">
        <ele>97.0</ele>
        <time>2013-01-27T09:13:26Z</time>
      </trkpt>
      <trkpt lat="57.813226" lon="12.056614">
        <ele>97.0</ele>
        <time>2013-01-27T09:13:31Z</time>
      </trkpt>
      <trkpt lat="57.813309" lon="12.056855">
        <ele>97.0</ele>
        <time>2013-01-27T09:13:35Z</time>
      </trkpt>
      <trkpt lat="57.813386" lon="12.057159">
        <ele>96.0</ele>
        <time>2013-01-27T09:13:39Z</time>
      </trkpt>
      <trkpt lat="57.813521" lon="12.05748">
        <ele>95.0</ele>
        <time>2013-01-27T09:13:44Z</time>
      </trkpt>
      <trkpt lat="57.813656" lon="12.057721">
        <ele>94.0</ele>
        <time>2013-01-27T09:13:48Z</time>
      </trkpt>
      <trkpt lat="57.813812" lon="12.057948">
        <ele>94.0</ele>
        <time>2013-01-27T09:13:52Z</time>
      </trkpt>
      <trkpt lat="57.814004" lon="12.058241">
        <ele>94.0</ele>
        <time>2013-01-27T09:13:57Z</time>
      </trkpt>
      <trkpt lat="57.814196" lon="12.058517">
        <ele>94.0</ele>
        <time>2013-01-27T09:14:02Z</time>
      </trkpt>
      <trkpt lat="57.814346" lon="12.058715">
        <ele>94.0</ele>
        <time>2013-01-27T09:14:06Z</time>
      </trkpt>
      <trkpt lat="57.814455" lon="12.058868">
        <ele>95.0</ele>
        <time>2013-01-27T09:14:10Z</time>
      </trkpt>
      <trkpt lat="57.814563" lon="12.058995">
        <ele>97.0</ele>
        <time>2013-01-27T09:14:14Z</time>
      </trkpt>
      <trkpt lat="57.814669" lon="12.059103">
        <ele>98.0</ele>
        <time>2013-01-27T09:14:19Z</time>
      </trkpt>
      <trkpt lat="57.814738" lon="12.059203">
        <ele>99.0</ele>
        <time>2013-01-27T09:14:23Z</time>
      </trkpt>
      <trkpt lat="57.814786" lon="12.059344">
        <ele>100.0</ele>
        <time>2013-01-27T09:14:28Z</time>
      </trkpt>
      <trkpt lat="57.81483" lon="12.059469">
        <ele>100.0</ele>
        <time>2013-01-27T09:14:32Z</time>
      </trkpt>
      <trkpt lat="57.814862" lon="12.059617">
        <ele>101.0</ele>
        <time>2013-01-27T09:14:36Z</time>
      </trkpt>
      <trkpt lat="57.814913" lon="12.059762">
        <ele>103.0</ele>
        <time>2013-01-27T09:14:41Z</time>
      </trkpt>
      <trkpt lat="57.81495" lon="12.059898">
        <ele>104.0</ele>
        <time>2013-01-27T09:14:46Z</time>
      </trkpt>
      <trkpt lat="57.814967" lon="12.060044">
        <ele>105.0</ele>
        <time>2013-01-27T09:14:50Z</time>
      </trkpt>
      <trkpt lat="57.814977" lon="12.06019">
        <ele>105.0</ele>
        <time>2013-01-27T09:14:54Z</time>
      </trkpt>
      <trkpt lat="57.814977" lon="12.060317">
        <ele>105.0</ele>
        <time>2013-01-27T09:14:57Z</time>
      </trkpt>
      <trkpt lat="57.815003" lon="12.060497">
        <ele>106.0</ele>
        <time>2013-01-27T09:15:01Z</time>
      </trkpt>
      <trkpt lat="57.815043" lon="12.06083">
        <ele>106.0</ele>
        <time>2013-01-27T09:15:06Z</time>
      </trkpt>
      <trkpt lat="57.815131" lon="12.061275">
        <ele>105.0</ele>
        <time>2013-01-27T09:15:11Z</time>
      </trkpt>
      <trkpt lat="57.815284" lon="12.061814">
        <ele>105.0</ele>
        <time>2013-01-27T09:15:16Z</time>
      </trkpt>
      <trkpt lat="57.815516" lon="12.062344">
        <ele>105.0</ele>
        <time>2013-01-27T09:15:21Z</time>
      </trkpt>
      <trkpt lat="57.815698" lon="12.062672">
        <ele>105.0</ele>
        <time>2013-01-27T09:15:25Z</time>
      </trkpt>
      <trkpt lat="57.815806" lon="12.062893">
        <ele>105.0</ele>
        <time>2013-01-27T09:15:29Z</time>
      </trkpt>
      <trkpt lat="57.815896" lon="12.063068">
        <ele>105.0</ele>
        <time>2013-01-27T09:15:34Z</time>
      </trkpt>
      <trkpt lat="57.816018" lon="12.063301">
        <ele>106.0</ele>
        <time>2013-01-27T09:15:39Z</time>
      </trkpt>
      <trkpt lat="57.81614" lon="12.063459">
        <ele>106.0</ele>
        <time>2013-01-27T09:15:43Z</time>
      </trkpt>
      <trkpt lat="57.816247" lon="12.063602">
        <ele>106.0</ele>
        <time>2013-01-27T09:15:47Z</time>
      </trkpt>
      <trkpt lat="57.816353" lon="12.063684">
        <ele>106.0</ele>
        <time>2013-01-27T09:15:51Z</time>
      </trkpt>
      <trkpt lat="57.816447" lon="12.063749">
        <ele>106.0</ele>
        <time>2013-01-27T09:15:55Z</time>
      </trkpt>
      <trkpt lat="57.816564" lon="12.063877">
        <ele>107.0</ele>
        <time>2013-01-27T09:16:00Z</time>
      </trkpt>
      <trkpt lat="57.816656" lon="12.063953">
        <ele>108.0</ele>
        <time>2013-01-27T09:16:04Z</time>
      </trkpt>
      <trkpt lat="57.816787" lon="12.064068">
        <ele>109.0</ele>
        <time>2013-01-27T09:16:09Z</time>
      </trkpt>
      <trkpt lat="57.816913" lon="12.064188">
        <ele>109.0</ele>
        <time>2013-01-27T09:16:13Z</time>
      </trkpt>
      <trkpt lat="57.817139" lon="12.064298">
        <ele>109.0</ele>
        <time>2013-01-27T09:16:18Z</time>
      </trkpt>
      <trkpt lat="57.817287" lon="12.064419">
        <ele>108.0</ele>
        <time>2013-01-27T09:16:22Z</time>
      </trkpt>
      <trkpt lat="57.817487" lon="12.064598">
        <ele>109.0</ele>
        <time>2013-01-27T09:16:27Z</time>
      </trkpt>
      <trkpt lat="57.817685" lon="12.064764">
        <ele>109.0</ele>
        <time>2013-01-27T09:16:32Z</time>
      </trkpt>
      <trkpt lat="57.81789" lon="12.064951">
        <ele>108.0</ele>
        <time>2013-01-27T09:16:37Z</time>
      </trkpt>
      <trkpt lat="57.818068" lon="12.065064">
        <ele>108.0</ele>
        <time>2013-01-27T09:16:41Z</time>
      </trkpt>
      <trkpt lat="57.818224" lon="12.065191">
        <ele>108.0</ele>
        <time>2013-01-27T09:16:45Z</time>
      </trkpt>
      <trkpt lat="57.818373" lon="12.065342">
        <ele>106.0</ele>
        <time>2013-01-27T09:16:49Z</time>
      </trkpt>
      <trkpt lat="57.818565" lon="12.065525">
        <ele>105.0</ele>
        <time>2013-01-27T09:16:54Z</time>
      </trkpt>
      <trkpt lat="57.818762" lon="12.065697">
        <ele>106.0</ele>
        <time>2013-01-27T09:16:59Z</time>
      </trkpt>
      <trkpt lat="57.818875" lon="12.065801">
        <ele>106.0</ele>
        <time>2013-01-27T09:17:03Z</time>
      </trkpt>
      <trkpt lat="57.81901" lon="12.065903">
        <ele>108.0</ele>
        <time>2013-01-27T09:17:08Z</time>
      </trkpt>
      <trkpt lat="57.819087" lon="12.066091">
        <ele>109.0</ele>
        <time>2013-01-27T09:17:13Z</time>
      </trkpt>
      <trkpt lat="57.819116" lon="12.066246">
        <ele>110.0</ele>
        <time>2013-01-27T09:17:18Z</time>
      </trkpt>
      <trkpt lat="57.819141" lon="12.066391">
        <ele>110.0</ele>
        <time>2013-01-27T09:17:22Z</time>
      </trkpt>
      <trkpt lat="57.819167" lon="12.066562">
        <ele>110.0</ele>
        <time>2013-01-27T09:17:26Z</time>
      </trkpt>
      <trkpt lat="57.819173" lon="12.066753">
        <ele>111.0</ele>
        <time>2013-01-27T09:17:31Z</time>
      </trkpt>
      <trkpt lat="57.819175" lon="12.066934">
        <ele>112.0</ele>
        <time>2013-01-27T09:17:36Z</time>
      </trkpt>
      <trkpt lat="57.819174" lon="12.06716">
        <ele>111.0</ele>
        <time>2013-01-27T09:17:40Z</time>
      </trkpt>
      <trkpt lat="57.819183" lon="12.067338">
        <ele>110.0</ele>
        <time>2013-01-27T09:17:44Z</time>
      </trkpt>
      <trkpt lat="57.819144" lon="12.067496">
        <ele>110.0</ele>
        <time>2013-01-27T09:17:48Z</time>
      </trkpt>
      <trkpt lat="57.819088" lon="12.067609">
        <ele>111.0</ele>
        <time>2013-01-27T09:17:52Z</time>
      </trkpt>
      <trkpt lat="57.818982" lon="12.067688">
        <ele>111.0</ele>
        <time>2013-01-27T09:17:57Z</time>
      </trkpt>
      <trkpt lat="57.818901" lon="12.067756">
        <ele>110.0</ele>
        <time>2013-01-27T09:18:02Z</time>
      </trkpt>
      <trkpt lat="57.818847" lon="12.067875">
        <ele>111.0</ele>
        <time>2013-01-27T09:18:07Z</time>
      </trkpt>
      <trkpt lat="57.81878" lon="12.067988">
        <ele>111.0</ele>
        <time>2013-01-27T09:18:11Z</time>
      </trkpt>
      <trkpt lat="57.818689" lon="12.068152">
        <ele>111.0</ele>
        <time>2013-01-27T09:18:16Z</time>
      </trkpt>
      <trkpt lat="57.818632" lon="12.068254">
        <ele>115.0</ele>
        <time>2013-01-27T09:18:36Z</time>
      </trkpt>
      <trkpt lat="57.818555" lon="12.068293">
        <ele>115.0</ele>
        <time>2013-01-27T09:18:43Z</time>
      </trkpt>
      <trkpt lat="57.818481" lon="12.068333">
        <ele>115.0</ele>
        <time>2013-01-27T09:18:52Z</time>
      </trkpt>
      <trkpt lat="57.818409" lon="12.068343">
        <ele>115.0</ele>
        <time>2013-01-27T09:18:57Z</time>
      </trkpt>
      <trkpt lat="57.818321" lon="12.068392">
        <ele>116.0</ele>
        <time>2013-01-27T09:19:02Z</time>
      </trkpt>
      <trkpt lat="57.818251" lon="12.068481">
        <ele>116.0</ele>
        <time>2013-01-27T09:19:07Z</time>
      </trkpt>
      <trkpt lat="57.818216" lon="12.068582">
        <ele>116.0</ele>
        <time>2013-01-27T09:19:11Z</time>
      </trkpt>
      <trkpt lat="57.818173" lon="12.068706">
        <ele>116.0</ele>
        <time>2013-01-27T09:19:26Z</time>
      </trkpt>
      <trkpt lat="57.818119" lon="12.068819">
        <ele>117.0</ele>
        <time>2013-01-27T09:20:04Z</time>
      </trkpt>
      <trkpt lat="57.818087" lon="12.068975">
        <ele>117.0</ele>
        <time>2013-01-27T09:20:08Z</time>
      </trkpt>
      <trkpt lat="57.817936" lon="12.069147">
        <ele>117.0</ele>
        <time>2013-01-27T09:20:13Z</time>
      </trkpt>
      <trkpt lat="57.817846" lon="12.069205">
        <ele>116.0</ele>
        <time>2013-01-27T09:20:17Z</time>
      </trkpt>
      <trkpt lat="57.817772" lon="12.069219">
        <ele>116.0</ele>
        <time>2013-01-27T09:20:22Z</time>
      </trkpt>
      <trkpt lat="57.817666" lon="12.069328">
        <ele>116.0</ele>
        <time>2013-01-27T09:20:27Z</time>
      </trkpt>
      <trkpt lat="57.817591" lon="12.069382">
        <ele>115.0</ele>
        <time>2013-01-27T09:20:31Z</time>
      </trkpt>
      <trkpt lat="57.817481" lon="12.069518">
        <ele>117.0</ele>
        <time>2013-01-27T09:20:36Z</time>
      </trkpt>
      <trkpt lat="57.817415" lon="12.06962">
        <ele>118.0</ele>
        <time>2013-01-27T09:20:40Z</time>
      </trkpt>
      <trkpt lat="57.817317" lon="12.069737">
        <ele>117.0</ele>
        <time>2013-01-27T09:20:44Z</time>
      </trkpt>
      <trkpt lat="57.817228" lon="12.069874">
        <ele>117.0</ele>
        <time>2013-01-27T09:20:49Z</time>
      </trkpt>
      <trkpt lat="57.81718" lon="12.069999">
        <ele>116.0</ele>
        <time>2013-01-27T09:20:58Z</time>
      </trkpt>
      <trkpt lat="57.817149" lon="12.070146">
        <ele>114.0</ele>
        <time>2013-01-27T09:21:13Z</time>
      </trkpt>
      <trkpt lat="57.817076" lon="12.070209">
        <ele>111.0</ele>
        <time>2013-01-27T09:21:28Z</time>
      </trkpt>
      <trkpt lat="57.817003" lon="12.070152">
        <ele>111.0</ele>
        <time>2013-01-27T09:21:34Z</time>
      </trkpt>
      <trkpt lat="57.81692" lon="12.070143">
        <ele>110.0</ele>
        <time>2013-01-27T09:21:39Z</time>
      </trkpt>
      <trkpt lat="57.81686" lon="12.070214">
        <ele>110.0</ele>
        <time>2013-01-27T09:21:44Z</time>
      </trkpt>
      <trkpt lat="57.816768" lon="12.070227">
        <ele>109.0</ele>
        <time>2013-01-27T09:21:48Z</time>
      </trkpt>
      <trkpt lat="57.816676" lon="12.070204">
        <ele>109.0</ele>
        <time>2013-01-27T09:21:52Z</time>
      </trkpt>
      <trkpt lat="57.816572" lon="12.070237">
        <ele>108.0</ele>
        <time>2013-01-27T09:21:57Z</time>
      </trkpt>
      <trkpt lat="57.816492" lon="12.070199">
        <ele>108.0</ele>
        <time>2013-01-27T09:22:02Z</time>
      </trkpt>
      <trkpt lat="57.816417" lon="12.070227">
        <ele>109.0</ele>
        <time>2013-01-27T09:22:07Z</time>
      </trkpt>
      <trkpt lat="57.816346" lon="12.070236">
        <ele>108.0</ele>
        <time>2013-01-27T09:22:13Z</time>
      </trkpt>
      <trkpt lat="57.816235" lon="12.07023">
        <ele>109.0</ele>
        <time>2013-01-27T09:22:18Z</time>
      </trkpt>
      <trkpt lat="57.816127" lon="12.070236">
        <ele>109.0</ele>
        <time>2013-01-27T09:22:22Z</time>
      </trkpt>
      <trkpt lat="57.816044" lon="12.070236">
        <ele>108.0</ele>
        <time>2013-01-27T09:22:42Z</time>
      </trkpt>
      <trkpt lat="57.815948" lon="12.070238">
        <ele>108.0</ele>
        <time>2013-01-27T09:22:47Z</time>
      </trkpt>
      <trkpt lat="57.815868" lon="12.070196">
        <ele>108.0</ele>
        <time>2013-01-27T09:22:51Z</time>
      </trkpt>
      <trkpt lat="57.815785" lon="12.070203">
        <ele>108.0</ele>
        <time>2013-01-27T09:22:56Z</time>
      </trkpt>
      <trkpt lat="57.815749" lon="12.070052">
        <ele>107.0</ele>
        <time>2013-01-27T09:23:06Z</time>
      </trkpt>
      <trkpt lat="57.815696" lon="12.069924">
        <ele>108.0</ele>
        <time>2013-01-27T09:23:13Z</time>
      </trkpt>
      <trkpt lat="57.815611" lon="12.069886">
        <ele>109.0</ele>
        <time>2013-01-27T09:23:18Z</time>
      </trkpt>
      <trkpt lat="57.815522" lon="12.069816">
        <ele>111.0</ele>
        <time>2013-01-27T09:23:33Z</time>
      </trkpt>
      <trkpt lat="57.815456" lon="12.069723">
        <ele>112.0</ele>
        <time>2013-01-27T09:23:54Z</time>
      </trkpt>
      <trkpt lat="57.815401" lon="12.069626">
        <ele>111.0</ele>
        <time>2013-01-27T09:24:03Z</time>
      </trkpt>
      <trkpt lat="57.815334" lon="12.069557">
        <ele>112.0</ele>
        <time>2013-01-27T09:24:19Z</time>
      </trkpt>
      <trkpt lat="57.815252" lon="12.06947">
        <ele>113.0</ele>
        <time>2013-01-27T09:24:24Z</time>
      </trkpt>
      <trkpt lat="57.815176" lon="12.069456">
        <ele>112.0</ele>
        <time>2013-01-27T09:24:30Z</time>
      </trkpt>
      <trkpt lat="57.815077" lon="12.069487">
        <ele>114.0</ele>
        <time>2013-01-27T09:24:35Z</time>
      </trkpt>
      <trkpt lat="57.815005" lon="12.069422">
        <ele>114.0</ele>
        <time>2013-01-27T09:24:39Z</time>
      </trkpt>
      <trkpt lat="57.814935" lon="12.069314">
        <ele>115.0</ele>
        <time>2013-01-27T09:24:44Z</time>
      </trkpt>
      <trkpt lat="57.814858" lon="12.069233">
        <ele>115.0</ele>
        <time>2013-01-27T09:24:49Z</time>
      </trkpt>
      <trkpt lat="57.814785" lon="12.06919">
        <ele>116.0</ele>
        <time>2013-01-27T09:24:53Z</time>
      </trkpt>
      <trkpt lat="57.8147" lon="12.069149">
        <ele>117.0</ele>
        <time>2013-01-27T09:24:58Z</time>
      </trkpt>
      <trkpt lat="57.814607" lon="12.069068">
        <ele>118.0</ele>
        <time>2013-01-27T09:25:03Z</time>
      </trkpt>
      <trkpt lat="57.814528" lon="12.069002">
        <ele>117.0</ele>
        <time>2013-01-27T09:25:07Z</time>
      </trkpt>
      <trkpt lat="57.814427" lon="12.068919">
        <ele>117.0</ele>
        <time>2013-01-27T09:25:12Z</time>
      </trkpt>
      <trkpt lat="57.814359" lon="12.068835">
        <ele>118.0</ele>
        <time>2013-01-27T09:25:16Z</time>
      </trkpt>
      <trkpt lat="57.814288" lon="12.0687">
        <ele>117.0</ele>
        <time>2013-01-27T09:25:21Z</time>
      </trkpt>
      <trkpt lat="57.814187" lon="12.068541">
        <ele>117.0</ele>
        <time>2013-01-27T09:25:25Z</time>
      </trkpt>
      <trkpt lat="57.814121" lon="12.068509">
        <ele>115.0</ele>
        <time>2013-01-27T09:25:31Z</time>
      </trkpt>
      <trkpt lat="57.813917" lon="12.068661">
        <ele>115.0</ele>
        <time>2013-01-27T09:25:35Z</time>
      </trkpt>
      <trkpt lat="57.813669" lon="12.068899">
        <ele>115.0</ele>
        <time>2013-01-27T09:25:40Z</time>
      </trkpt>
      <trkpt lat="57.813415" lon="12.06912">
        <ele>114.0</ele>
        <time>2013-01-27T09:25:44Z</time>
      </trkpt>
      <trkpt lat="57.813067" lon="12.069346">
        <ele>113.0</ele>
        <time>2013-01-27T09:25:49Z</time>
      </trkpt>
      <trkpt lat="57.812816" lon="12.069501">
        <ele>112.0</ele>
        <time>2013-01-27T09:25:53Z</time>
      </trkpt>
      <trkpt lat="57.812662" lon="12.069709">
        <ele>111.0</ele>
        <time>2013-01-27T09:25:57Z</time>
      </trkpt>
      <trkpt lat="57.81258" lon="12.069712">
        <ele>110.0</ele>
        <time>2013-01-27T09:26:36Z</time>
      </trkpt>
      <trkpt lat="57.812459" lon="12.069849">
        <ele>109.0</ele>
        <time>2013-01-27T09:26:41Z</time>
      </trkpt>
      <trkpt lat="57.812399" lon="12.069948">
        <ele>108.0</ele>
        <time>2013-01-27T09:26:45Z</time>
      </trkpt>
      <trkpt lat="57.812334" lon="12.070211">
        <ele>108.0</ele>
        <time>2013-01-27T09:26:50Z</time>
      </trkpt>
      <trkpt lat="57.812317" lon="12.070382">
        <ele>108.0</ele>
        <time>2013-01-27T09:26:55Z</time>
      </trkpt>
      <trkpt lat="57.812328" lon="12.070522">
        <ele>108.0</ele>
        <time>2013-01-27T09:27:00Z</time>
      </trkpt>
      <trkpt lat="57.812361" lon="12.070663">
        <ele>108.0</ele>
        <time>2013-01-27T09:27:06Z</time>
      </trkpt>
      <trkpt lat="57.812334" lon="12.070815">
        <ele>107.0</ele>
        <time>2013-01-27T09:27:11Z</time>
      </trkpt>
      <trkpt lat="57.812265" lon="12.07095">
        <ele>106.0</ele>
        <time>2013-01-27T09:27:16Z</time>
      </trkpt>
      <trkpt lat="57.812186" lon="12.071072">
        <ele>106.0</ele>
        <time>2013-01-27T09:27:20Z</time>
      </trkpt>
      <trkpt lat="57.812112" lon="12.071195">
        <ele>107.0</ele>
        <time>2013-01-27T09:27:24Z</time>
      </trkpt>
      <trkpt lat="57.812048" lon="12.071447">
        <ele>107.0</ele>
        <time>2013-01-27T09:27:29Z</time>
      </trkpt>
      <trkpt lat="57.811978" lon="12.071633">
        <ele>108.0</ele>
        <time>2013-01-27T09:27:34Z</time>
      </trkpt>
      <trkpt lat="57.811976" lon="12.071786">
        <ele>110.0</ele>
        <time>2013-01-27T09:27:38Z</time>
      </trkpt>
      <trkpt lat="57.812029" lon="12.071896">
        <ele>112.0</ele>
        <time>2013-01-27T09:27:43Z</time>
      </trkpt>
      <trkpt lat="57.8121" lon="12.071966">
        <ele>113.0</ele>
        <time>2013-01-27T09:27:48Z</time>
      </trkpt>
      <trkpt lat="57.812142" lon="12.072105">
        <ele>114.0</ele>
        <time>2013-01-27T09:27:54Z</time>
      </trkpt>
      <trkpt lat="57.812185" lon="12.07224">
        <ele>113.0</ele>
        <time>2013-01-27T09:28:03Z</time>
      </trkpt>
      <trkpt lat="57.812221" lon="12.072367">
        <ele>112.0</ele>
        <time>2013-01-27T09:28:08Z</time>
      </trkpt>
      <trkpt lat="57.812268" lon="12.072485">
        <ele>111.0</ele>
        <time>2013-01-27T09:28:13Z</time>
      </trkpt>
      <trkpt lat="57.812329" lon="12.072581">
        <ele>111.0</ele>
        <time>2013-01-27T09:28:21Z</time>
      </trkpt>
      <trkpt lat="57.81242" lon="12.072567">
        <ele>110.0</ele>
        <time>2013-01-27T09:28:25Z</time>
      </trkpt>
      <trkpt lat="57.812497" lon="12.072551">
        <ele>110.0</ele>
        <time>2013-01-27T09:28:29Z</time>
      </trkpt>
      <trkpt lat="57.812576" lon="12.07261">
        <ele>109.0</ele>
        <time>2013-01-27T09:28:35Z</time>
      </trkpt>
      <trkpt lat="57.812656" lon="12.072589">
        <ele>110.0</ele>
        <time>2013-01-27T09:28:39Z</time>
      </trkpt>
      <trkpt lat="57.812748" lon="12.072532">
        <ele>109.0</ele>
        <time>2013-01-27T09:28:44Z</time>
      </trkpt>
      <trkpt lat="57.812817" lon="12.072615">
        <ele>109.0</ele>
        <time>2013-01-27T09:28:49Z</time>
      </trkpt>
      <trkpt lat="57.812886" lon="12.072606">
        <ele>109.0</ele>
        <time>2013-01-27T09:28:54Z</time>
      </trkpt>
      <trkpt lat="57.812963" lon="12.072545">
        <ele>109.0</ele>
        <time>2013-01-27T09:28:59Z</time>
      </trkpt>
      <trkpt lat="57.813063" lon="12.072639">
        <ele>110.0</ele>
        <time>2013-01-27T09:29:04Z</time>
      </trkpt>
      <trkpt lat="57.813174" lon="12.072741">
        <ele>110.0</ele>
        <time>2013-01-27T09:29:09Z</time>
      </trkpt>
      <trkpt lat="57.813269" lon="12.072755">
        <ele>109.0</ele>
        <time>2013-01-27T09:29:13Z</time>
      </trkpt>
      <trkpt lat="57.813347" lon="12.07271">
        <ele>109.0</ele>
        <time>2013-01-27T09:29:55Z</time>
      </trkpt>
      <trkpt lat="57.813422" lon="12.072697">
        <ele>109.0</ele>
        <time>2013-01-27T09:30:06Z</time>
      </trkpt>
      <trkpt lat="57.813494" lon="12.072648">
        <ele>108.0</ele>
        <time>2013-01-27T09:30:13Z</time>
      </trkpt>
      <trkpt lat="57.81358" lon="12.072631">
        <ele>108.0</ele>
        <time>2013-01-27T09:30:23Z</time>
      </trkpt>
      <trkpt lat="57.813651" lon="12.072549">
        <ele>108.0</ele>
        <time>2013-01-27T09:30:29Z</time>
      </trkpt>
      <trkpt lat="57.813727" lon="12.072472">
        <ele>108.0</ele>
        <time>2013-01-27T09:30:33Z</time>
      </trkpt>
      <trkpt lat="57.813832" lon="12.07239">
        <ele>108.0</ele>
        <time>2013-01-27T09:30:38Z</time>
      </trkpt>
      <trkpt lat="57.813903" lon="12.072332">
        <ele>109.0</ele>
        <time>2013-01-27T09:30:42Z</time>
      </trkpt>
      <trkpt lat="57.813979" lon="12.07228">
        <ele>108.0</ele>
        <time>2013-01-27T09:30:46Z</time>
      </trkpt>
      <trkpt lat="57.814146" lon="12.072214">
        <ele>107.0</ele>
        <time>2013-01-27T09:30:51Z</time>
      </trkpt>
      <trkpt lat="57.814273" lon="12.072207">
        <ele>107.0</ele>
        <time>2013-01-27T09:30:55Z</time>
      </trkpt>
      <trkpt lat="57.814474" lon="12.072145">
        <ele>107.0</ele>
        <time>2013-01-27T09:31:00Z</time>
      </trkpt>
      <trkpt lat="57.814617" lon="12.072056">
        <ele>106.0</ele>
        <time>2013-01-27T09:31:04Z</time>
      </trkpt>
      <trkpt lat="57.814755" lon="12.072062">
        <ele>106.0</ele>
        <time>2013-01-27T09:31:08Z</time>
      </trkpt>
      <trkpt lat="57.814863" lon="12.072118">
        <ele>106.0</ele>
        <time>2013-01-27T09:31:13Z</time>
      </trkpt>
      <trkpt lat="57.814961" lon="12.072166">
        <ele>107.0</ele>
        <time>2013-01-27T09:31:18Z</time>
      </trkpt>
      <trkpt lat="57.815034" lon="12.072174">
        <ele>107.0</ele>
        <time>2013-01-27T09:31:22Z</time>
      </trkpt>
      <trkpt lat="57.815148" lon="12.072196">
        <ele>108.0</ele>
        <time>2013-01-27T09:31:27Z</time>
      </trkpt>
      <trkpt lat="57.815249" lon="12.07224">
        <ele>108.0</ele>
        <time>2013-01-27T09:31:31Z</time>
      </trkpt>
      <trkpt lat="57.81532" lon="12.072329">
        <ele>108.0</ele>
        <time>2013-01-27T09:31:35Z</time>
      </trkpt>
      <trkpt lat="57.815388" lon="12.072491">
        <ele>107.0</ele>
        <time>2013-01-27T09:31:39Z</time>
      </trkpt>
      <trkpt lat="57.815399" lon="12.072646">
        <ele>107.0</ele>
        <time>2013-01-27T09:31:43Z</time>
      </trkpt>
      <trkpt lat="57.815422" lon="12.072793">
        <ele>106.0</ele>
        <time>2013-01-27T09:31:50Z</time>
      </trkpt>
      <trkpt lat="57.815485" lon="12.072915">
        <ele>106.0</ele>
        <time>2013-01-27T09:31:58Z</time>
      </trkpt>
      <trkpt lat="57.815537" lon="12.072971">
        <ele>107.0</ele>
        <time>2013-01-27T09:32:04Z</time>
      </trkpt>
      <trkpt lat="57.815608" lon="12.073072">
        <ele>108.0</ele>
        <time>2013-01-27T09:32:08Z</time>
      </trkpt>
      <trkpt lat="57.815659" lon="12.073197">
        <ele>108.0</ele>
        <time>2013-01-27T09:32:12Z</time>
      </trkpt>
      <trkpt lat="57.815691" lon="12.07334">
        <ele>108.0</ele>
        <time>2013-01-27T09:32:17Z</time>
      </trkpt>
      <trkpt lat="57.815731" lon="12.073496">
        <ele>108.0</ele>
        <time>2013-01-27T09:32:23Z</time>
      </trkpt>
      <trkpt lat="57.815757" lon="12.07364">
        <ele>107.0</ele>
        <time>2013-01-27T09:32:27Z</time>
      </trkpt>
      <trkpt lat="57.815804" lon="12.073758">
        <ele>108.0</ele>
        <time>2013-01-27T09:32:31Z</time>
      </trkpt>
      <trkpt lat="57.815818" lon="12.073905">
        <ele>108.0</ele>
        <time>2013-01-27T09:32:36Z</time>
      </trkpt>
      <trkpt lat="57.815826" lon="12.074042">
        <ele>108.0</ele>
        <time>2013-01-27T09:32:41Z</time>
      </trkpt>
      <trkpt lat="57.815862" lon="12.074172">
        <ele>109.0</ele>
        <time>2013-01-27T09:32:48Z</time>
      </trkpt>
      <trkpt lat="57.815913" lon="12.074241">
        <ele>111.0</ele>
        <time>2013-01-27T09:32:57Z</time>
      </trkpt>
      <trkpt lat="57.815926" lon="12.07444">
        <ele>113.0</ele>
        <time>2013-01-27T09:33:02Z</time>
      </trkpt>
      <trkpt lat="57.815921" lon="12.074576">
        <ele>113.0</ele>
        <time>2013-01-27T09:33:06Z</time>
      </trkpt>
      <trkpt lat="57.815891" lon="12.074714">
        <ele>114.0</ele>
        <time>2013-01-27T09:33:15Z</time>
      </trkpt>
      <trkpt lat="57.81583" lon="12.074832">
        <ele>116.0</ele>
        <time>2013-01-27T09:33:28Z</time>
      </trkpt>
      <trkpt lat="57.815806" lon="12.074994">
        <ele>118.0</ele>
        <time>2013-01-27T09:33:49Z</time>
      </trkpt>
      <trkpt lat="57.815791" lon="12.075146">
        <ele>117.0</ele>
        <time>2013-01-27T09:34:02Z</time>
      </trkpt>
      <trkpt lat="57.815765" lon="12.075255">
        <ele>118.0</ele>
        <time>2013-01-27T09:34:11Z</time>
      </trkpt>
      <trkpt lat="57.815707" lon="12.075368">
        <ele>123.0</ele>
        <time>2013-01-27T09:34:23Z</time>
      </trkpt>
      <trkpt lat="57.815626" lon="12.075358">
        <ele>131.0</ele>
        <time>2013-01-27T09:36:14Z</time>
      </trkpt>
      <trkpt lat="57.815544" lon="12.075286">
        <ele>130.0</ele>
        <time>2013-01-27T09:36:20Z</time>
      </trkpt>
      <trkpt lat="57.815408" lon="12.075264">
        <ele>130.0</ele>
        <time>2013-01-27T09:36:24Z</time>
      </trkpt>
      <trkpt lat="57.815279" lon="12.075286">
        <ele>129.0</ele>
        <time>2013-01-27T09:36:29Z</time>
      </trkpt>
      <trkpt lat="57.81516" lon="12.075325">
        <ele>128.0</ele>
        <time>2013-01-27T09:36:33Z</time>
      </trkpt>
      <trkpt lat="57.815069" lon="12.075378">
        <ele>127.0</ele>
        <time>2013-01-27T09:36:37Z</time>
      </trkpt>
      <trkpt lat="57.814942" lon="12.075504">
        <ele>127.0</ele>
        <time>2013-01-27T09:36:42Z</time>
      </trkpt>
      <trkpt lat="57.814858" lon="12.075563">
        <ele>127.0</ele>
        <time>2013-01-27T09:36:47Z</time>
      </trkpt>
      <trkpt lat="57.814741" lon="12.075639">
        <ele>127.0</ele>
        <time>2013-01-27T09:36:51Z</time>
      </trkpt>
      <trkpt lat="57.814624" lon="12.075617">
        <ele>127.0</ele>
        <time>2013-01-27T09:36:56Z</time>
      </trkpt>
      <trkpt lat="57.814499" lon="12.075632">
        <ele>127.0</ele>
        <time>2013-01-27T09:37:00Z</time>
      </trkpt>
      <trkpt lat="57.814408" lon="12.075707">
        <ele>126.0</ele>
        <time>2013-01-27T09:37:04Z</time>
      </trkpt>
      <trkpt lat="57.814323" lon="12.075829">
        <ele>126.0</ele>
        <time>2013-01-27T09:37:08Z</time>
      </trkpt>
      <trkpt lat="57.814262" lon="12.075893">
        <ele>126.0</ele>
        <time>2013-01-27T09:37:13Z</time>
      </trkpt>
      <trkpt lat="57.8141" lon="12.076044">
        <ele>126.0</ele>
        <time>2013-01-27T09:37:18Z</time>
      </trkpt>
      <trkpt lat="57.814032" lon="12.07616">
        <ele>125.0</ele>
        <time>2013-01-27T09:37:22Z</time>
      </trkpt>
      <trkpt lat="57.813883" lon="12.076235">
        <ele>124.0</ele>
        <time>2013-01-27T09:37:27Z</time>
      </trkpt>
      <trkpt lat="57.813753" lon="12.076289">
        <ele>125.0</ele>
        <time>2013-01-27T09:37:32Z</time>
      </trkpt>
      <trkpt lat="57.813587" lon="12.076439">
        <ele>124.0</ele>
        <time>2013-01-27T09:37:36Z</time>
      </trkpt>
      <trkpt lat="57.813457" lon="12.076561">
        <ele>124.0</ele>
        <time>2013-01-27T09:37:41Z</time>
      </trkpt>
      <trkpt lat="57.813371" lon="12.076643">
        <ele>124.0</ele>
        <time>2013-01-27T09:37:46Z</time>
      </trkpt>
      <trkpt lat="57.813296" lon="12.076802">
        <ele>123.0</ele>
        <time>2013-01-27T09:37:50Z</time>
      </trkpt>
      <trkpt lat="57.8132" lon="12.07696">
        <ele>122.0</ele>
        <time>2013-01-27T09:37:54Z</time>
      </trkpt>
      <trkpt lat="57.813065" lon="12.076911">
        <ele>120.0</ele>
        <time>2013-01-27T09:37:58Z</time>
      </trkpt>
      <trkpt lat="57.812936" lon="12.076946">
        <ele>119.0</ele>
        <time>2013-01-27T09:38:02Z</time>
      </trkpt>
      <trkpt lat="57.812803" lon="12.077082">
        <ele>120.0</ele>
        <time>2013-01-27T09:38:06Z</time>
      </trkpt>
      <trkpt lat="57.812655" lon="12.0771">
        <ele>119.0</ele>
        <time>2013-01-27T09:38:11Z</time>
      </trkpt>
      <trkpt lat="57.812492" lon="12.077214">
        <ele>119.0</ele>
        <time>2013-01-27T09:38:16Z</time>
      </trkpt>
      <trkpt lat="57.812359" lon="12.077267">
        <ele>119.0</ele>
        <time>2013-01-27T09:38:20Z</time>
      </trkpt>
      <trkpt lat="57.812221" lon="12.0773">
        <ele>119.0</ele>
        <time>2013-01-27T09:38:25Z</time>
      </trkpt>
      <trkpt lat="57.812129" lon="12.077298">
        <ele>118.0</ele>
        <time>2013-01-27T09:38:30Z</time>
      </trkpt>
      <trkpt lat="57.812044" lon="12.077316">
        <ele>118.0</ele>
        <time>2013-01-27T09:38:34Z</time>
      </trkpt>
      <trkpt lat="57.811956" lon="12.077346">
        <ele>119.0</ele>
        <time>2013-01-27T09:38:38Z</time>
      </trkpt>
      <trkpt lat="57.81188" lon="12.077371">
        <ele>119.0</ele>
        <time>2013-01-27T09:38:46Z</time>
      </trkpt>
      <trkpt lat="57.811822" lon="12.077376">
        <ele>119.0</ele>
        <time>2013-01-27T09:38:52Z</time>
      </trkpt>
      <trkpt lat="57.811783" lon="12.077358">
        <ele>119.0</ele>
        <time>2013-01-27T09:38:54Z</time>
      </trkpt>
      <trkpt lat="57.811681" lon="12.077357">
        <ele>119.0</ele>
        <time>2013-01-27T09:38:59Z</time>
      </trkpt>
      <trkpt lat="57.811572" lon="12.077323">
        <ele>118.0</ele>
        <time>2013-01-27T09:39:04Z</time>
      </trkpt>
      <trkpt lat="57.811496" lon="12.077304">
        <ele>117.0</ele>
        <time>2013-01-27T09:39:10Z</time>
      </trkpt>
      <trkpt lat="57.811431" lon="12.077441">
        <ele>119.0</ele>
        <time>2013-01-27T09:39:14Z</time>
      </trkpt>
      <trkpt lat="57.81137" lon="12.077547">
        <ele>120.0</ele>
        <time>2013-01-27T09:39:21Z</time>
      </trkpt>
      <trkpt lat="57.811296" lon="12.077495">
        <ele>120.0</ele>
        <time>2013-01-27T09:39:31Z</time>
      </trkpt>
      <trkpt lat="57.811235" lon="12.07751">
        <ele>120.0</ele>
        <time>2013-01-27T09:39:37Z</time>
      </trkpt>
      <trkpt lat="57.811118" lon="12.077511">
        <ele>121.0</ele>
        <time>2013-01-27T09:39:42Z</time>
      </trkpt>
      <trkpt lat="57.81095" lon="12.077598">
        <ele>120.0</ele>
        <time>2013-01-27T09:39:47Z</time>
      </trkpt>
      <trkpt lat="57.810861" lon="12.07758">
        <ele>121.0</ele>
        <time>2013-01-27T09:39:51Z</time>
      </trkpt>
      <trkpt lat="57.810777" lon="12.077652">
        <ele>121.0</ele>
        <time>2013-01-27T09:39:56Z</time>
      </trkpt>
      <trkpt lat="57.810749" lon="12.077648">
        <ele>121.0</ele>
        <time>2013-01-27T09:39:58Z</time>
      </trkpt>
      <trkpt lat="57.810672" lon="12.077664">
        <ele>120.0</ele>
        <time>2013-01-27T09:40:05Z</time>
      </trkpt>
      <trkpt lat="57.810639" lon="12.077798">
        <ele>120.0</ele>
        <time>2013-01-27T09:40:11Z</time>
      </trkpt>
      <trkpt lat="57.810562" lon="12.07787">
        <ele>121.0</ele>
        <time>2013-01-27T09:40:17Z</time>
      </trkpt>
      <trkpt lat="57.810481" lon="12.077899">
        <ele>124.0</ele>
        <time>2013-01-27T09:40:24Z</time>
      </trkpt>
      <trkpt lat="57.810533" lon="12.078024">
        <ele>126.0</ele>
        <time>2013-01-27T09:42:07Z</time>
      </trkpt>
      <trkpt lat="57.810587" lon="12.078129">
        <ele>128.0</ele>
        <time>2013-01-27T09:42:12Z</time>
      </trkpt>
      <trkpt lat="57.810579" lon="12.07827">
        <ele>127.0</ele>
        <time>2013-01-27T09:42:17Z</time>
      </trkpt>
      <trkpt lat="57.810563" lon="12.078403">
        <ele>128.0</ele>
        <time>2013-01-27T09:42:22Z</time>
      </trkpt>
      <trkpt lat="57.810548" lon="12.078563">
        <ele>127.0</ele>
        <time>2013-01-27T09:42:28Z</time>
      </trkpt>
      <trkpt lat="57.810543" lon="12.078729">
        <ele>126.0</ele>
        <time>2013-01-27T09:42:32Z</time>
      </trkpt>
      <trkpt lat="57.810522" lon="12.078876">
        <ele>125.0</ele>
        <time>2013-01-27T09:42:37Z</time>
      </trkpt>
      <trkpt lat="57.810497" lon="12.079039">
        <ele>125.0</ele>
        <time>2013-01-27T09:42:48Z</time>
      </trkpt>
      <trkpt lat="57.810454" lon="12.07915">
        <ele>124.0</ele>
        <time>2013-01-27T09:43:46Z</time>
      </trkpt>
      <trkpt lat="57.810384" lon="12.079201">
        <ele>124.0</ele>
        <time>2013-01-27T09:43:50Z</time>
      </trkpt>
      <trkpt lat="57.8103" lon="12.079248">
        <ele>123.0</ele>
        <time>2013-01-27T09:43:54Z</time>
      </trkpt>
      <trkpt lat="57.810195" lon="12.079443">
        <ele>123.0</ele>
        <time>2013-01-27T09:43:59Z</time>
      </trkpt>
      <trkpt lat="57.810093" lon="12.079616">
        <ele>126.0</ele>
        <time>2013-01-27T09:44:03Z</time>
      </trkpt>
      <trkpt lat="57.810018" lon="12.079685">
        <ele>126.0</ele>
        <time>2013-01-27T09:44:07Z</time>
      </trkpt>
      <trkpt lat="57.809916" lon="12.079757">
        <ele>127.0</ele>
        <time>2013-01-27T09:44:11Z</time>
      </trkpt>
      <trkpt lat="57.809834" lon="12.079875">
        <ele>125.0</ele>
        <time>2013-01-27T09:44:16Z</time>
      </trkpt>
      <trkpt lat="57.809777" lon="12.079992">
        <ele>123.0</ele>
        <time>2013-01-27T09:44:23Z</time>
      </trkpt>
      <trkpt lat="57.809698" lon="12.080067">
        <ele>124.0</ele>
        <time>2013-01-27T09:44:36Z</time>
      </trkpt>
      <trkpt lat="57.809647" lon="12.080142">
        <ele>123.0</ele>
        <time>2013-01-27T09:44:41Z</time>
      </trkpt>
      <trkpt lat="57.80958" lon="12.080245">
        <ele>123.0</ele>
        <time>2013-01-27T09:44:46Z</time>
      </trkpt>
      <trkpt lat="57.809491" lon="12.080306">
        <ele>123.0</ele>
        <time>2013-01-27T09:44:50Z</time>
      </trkpt>
      <trkpt lat="57.80935" lon="12.08044">
        <ele>123.0</ele>
        <time>2013-01-27T09:44:55Z</time>
      </trkpt>
      <trkpt lat="57.809296" lon="12.080543">
        <ele>122.0</ele>
        <time>2013-01-27T09:45:01Z</time>
      </trkpt>
      <trkpt lat="57.809218" lon="12.080609">
        <ele>122.0</ele>
        <time>2013-01-27T09:45:06Z</time>
      </trkpt>
      <trkpt lat="57.809142" lon="12.080693">
        <ele>122.0</ele>
        <time>2013-01-27T09:45:11Z</time>
      </trkpt>
      <trkpt lat="57.809079" lon="12.08077">
        <ele>122.0</ele>
        <time>2013-01-27T09:45:16Z</time>
      </trkpt>
      <trkpt lat="57.809" lon="12.080837">
        <ele>122.0</ele>
        <time>2013-01-27T09:45:21Z</time>
      </trkpt>
      <trkpt lat="57.808919" lon="12.080845">
        <ele>124.0</ele>
        <time>2013-01-27T09:45:27Z</time>
      </trkpt>
      <trkpt lat="57.808842" lon="12.08093">
        <ele>124.0</ele>
        <time>2013-01-27T09:45:34Z</time>
      </trkpt>
      <trkpt lat="57.808762" lon="12.080974">
        <ele>123.0</ele>
        <time>2013-01-27T09:45:43Z</time>
      </trkpt>
      <trkpt lat="57.808684" lon="12.081003">
        <ele>123.0</ele>
        <time>2013-01-27T09:45:49Z</time>
      </trkpt>
      <trkpt lat="57.808593" lon="12.081069">
        <ele>123.0</ele>
        <time>2013-01-27T09:45:54Z</time>
      </trkpt>
      <trkpt lat="57.808499" lon="12.081136">
        <ele>123.0</ele>
        <time>2013-01-27T09:45:59Z</time>
      </trkpt>
      <trkpt lat="57.808421" lon="12.081159">
        <ele>124.0</ele>
        <time>2013-01-27T09:46:04Z</time>
      </trkpt>
      <trkpt lat="57.808336" lon="12.081204">
        <ele>125.0</ele>
        <time>2013-01-27T09:46:08Z</time>
      </trkpt>
      <trkpt lat="57.808234" lon="12.081248">
        <ele>126.0</ele>
        <time>2013-01-27T09:46:13Z</time>
      </trkpt>
      <trkpt lat="57.808142" lon="12.081313">
        <ele>125.0</ele>
        <time>2013-01-27T09:46:18Z</time>
      </trkpt>
      <trkpt lat="57.808087" lon="12.081447">
        <ele>127.0</ele>
        <time>2013-01-27T09:46:23Z</time>
      </trkpt>
      <trkpt lat="57.808026" lon="12.081551">
        <ele>129.0</ele>
        <time>2013-01-27T09:46:37Z</time>
      </trkpt>
      <trkpt lat="57.807945" lon="12.081623">
        <ele>132.0</ele>
        <time>2013-01-27T09:46:50Z</time>
      </trkpt>
      <trkpt lat="57.807831" lon="12.081681">
        <ele>131.0</ele>
        <time>2013-01-27T09:46:55Z</time>
      </trkpt>
      <trkpt lat="57.807746" lon="12.081708">
        <ele>131.0</ele>
        <time>2013-01-27T09:46:59Z</time>
      </trkpt>
      <trkpt lat="57.807664" lon="12.0817">
        <ele>130.0</ele>
        <time>2013-01-27T09:47:05Z</time>
      </trkpt>
      <trkpt lat="57.807592" lon="12.081779">
        <ele>130.0</ele>
        <time>2013-01-27T09:47:16Z</time>
      </trkpt>
      <trkpt lat="57.807515" lon="12.081795">
        <ele>129.0</ele>
        <time>2013-01-27T09:47:27Z</time>
      </trkpt>
      <trkpt lat="57.807441" lon="12.081824">
        <ele>128.0</ele>
        <time>2013-01-27T09:47:33Z</time>
      </trkpt>
      <trkpt lat="57.807348" lon="12.081876">
        <ele>128.0</ele>
        <time>2013-01-27T09:47:37Z</time>
      </trkpt>
      <trkpt lat="57.807261" lon="12.08188">
        <ele>127.0</ele>
        <time>2013-01-27T09:47:46Z</time>
      </trkpt>
      <trkpt lat="57.807195" lon="12.081945">
        <ele>127.0</ele>
        <time>2013-01-27T09:47:56Z</time>
      </trkpt>
      <trkpt lat="57.807063" lon="12.081991">
        <ele>127.0</ele>
        <time>2013-01-27T09:48:01Z</time>
      </trkpt>
      <trkpt lat="57.806934" lon="12.082009">
        <ele>127.0</ele>
        <time>2013-01-27T09:48:05Z</time>
      </trkpt>
      <trkpt lat="57.806822" lon="12.082035">
        <ele>126.0</ele>
        <time>2013-01-27T09:48:09Z</time>
      </trkpt>
      <trkpt lat="57.806689" lon="12.082074">
        <ele>126.0</ele>
        <time>2013-01-27T09:48:14Z</time>
      </trkpt>
      <trkpt lat="57.806578" lon="12.082158">
        <ele>125.0</ele>
        <time>2013-01-27T09:48:18Z</time>
      </trkpt>
      <trkpt lat="57.806485" lon="12.082286">
        <ele>124.0</ele>
        <time>2013-01-27T09:48:22Z</time>
      </trkpt>
      <trkpt lat="57.806354" lon="12.082448">
        <ele>123.0</ele>
        <time>2013-01-27T09:48:27Z</time>
      </trkpt>
      <trkpt lat="57.806266" lon="12.082489">
        <ele>122.0</ele>
        <time>2013-01-27T09:48:31Z</time>
      </trkpt>
      <trkpt lat="57.806172" lon="12.082551">
        <ele>120.0</ele>
        <time>2013-01-27T09:48:36Z</time>
      </trkpt>
      <trkpt lat="57.806092" lon="12.08258">
        <ele>120.0</ele>
        <time>2013-01-27T09:48:47Z</time>
      </trkpt>
      <trkpt lat="57.805999" lon="12.082562">
        <ele>120.0</ele>
        <time>2013-01-27T09:48:52Z</time>
      </trkpt>
      <trkpt lat="57.805911" lon="12.082556">
        <ele>121.0</ele>
        <time>2013-01-27T09:48:56Z</time>
      </trkpt>
      <trkpt lat="57.805829" lon="12.0825">
        <ele>123.0</ele>
        <time>2013-01-27T09:49:06Z</time>
      </trkpt>
      <trkpt lat="57.805752" lon="12.082501">
        <ele>125.0</ele>
        <time>2013-01-27T09:49:18Z</time>
      </trkpt>
      <trkpt lat="57.805672" lon="12.082438">
        <ele>126.0</ele>
        <time>2013-01-27T09:49:32Z</time>
      </trkpt>
      <trkpt lat="57.805622" lon="12.082303">
        <ele>125.0</ele>
        <time>2013-01-27T09:49:46Z</time>
      </trkpt>
      <trkpt lat="57.805546" lon="12.08227">
        <ele>124.0</ele>
        <time>2013-01-27T09:49:53Z</time>
      </trkpt>
      <trkpt lat="57.805469" lon="12.082278">
        <ele>125.0</ele>
        <time>2013-01-27T09:50:00Z</time>
      </trkpt>
      <trkpt lat="57.805396" lon="12.082227">
        <ele>126.0</ele>
        <time>2013-01-27T09:50:11Z</time>
      </trkpt>
      <trkpt lat="57.805321" lon="12.082303">
        <ele>126.0</ele>
        <time>2013-01-27T09:50:21Z</time>
      </trkpt>
      <trkpt lat="57.805258" lon="12.082403">
        <ele>127.0</ele>
        <time>2013-01-27T09:52:15Z</time>
      </trkpt>
      <trkpt lat="57.805151" lon="12.082436">
        <ele>127.0</ele>
        <time>2013-01-27T09:52:20Z</time>
      </trkpt>
      <trkpt lat="57.805035" lon="12.08255">
        <ele>126.0</ele>
        <time>2013-01-27T09:52:24Z</time>
      </trkpt>
      <trkpt lat="57.804852" lon="12.082708">
        <ele>122.0</ele>
        <time>2013-01-27T09:52:29Z</time>
      </trkpt>
      <trkpt lat="57.804747" lon="12.082766">
        <ele>122.0</ele>
        <time>2013-01-27T09:52:33Z</time>
      </trkpt>
      <trkpt lat="57.804618" lon="12.082777">
        <ele>121.0</ele>
        <time>2013-01-27T09:52:37Z</time>
      </trkpt>
      <trkpt lat="57.804482" lon="12.08282">
        <ele>124.0</ele>
        <time>2013-01-27T09:52:42Z</time>
      </trkpt>
      <trkpt lat="57.804357" lon="12.082875">
        <ele>124.0</ele>
        <time>2013-01-27T09:52:46Z</time>
      </trkpt>
      <trkpt lat="57.804164" lon="12.082936">
        <ele>124.0</ele>
        <time>2013-01-27T09:52:51Z</time>
      </trkpt>
      <trkpt lat="57.803976" lon="12.083061">
        <ele>124.0</ele>
        <time>2013-01-27T09:52:56Z</time>
      </trkpt>
      <trkpt lat="57.803881" lon="12.083106">
        <ele>124.0</ele>
        <time>2013-01-27T09:53:00Z</time>
      </trkpt>
      <trkpt lat="57.8038" lon="12.083194">
        <ele>123.0</ele>
        <time>2013-01-27T09:53:04Z</time>
      </trkpt>
      <trkpt lat="57.803754" lon="12.083321">
        <ele>123.0</ele>
        <time>2013-01-27T09:53:08Z</time>
      </trkpt>
      <trkpt lat="57.803726" lon="12.08347">
        <ele>123.0</ele>
        <time>2013-01-27T09:53:12Z</time>
      </trkpt>
      <trkpt lat="57.80373" lon="12.083708">
        <ele>122.0</ele>
        <time>2013-01-27T09:53:17Z</time>
      </trkpt>
      <trkpt lat="57.803748" lon="12.08385">
        <ele>119.0</ele>
        <time>2013-01-27T09:53:31Z</time>
      </trkpt>
      <trkpt lat="57.803789" lon="12.083977">
        <ele>118.0</ele>
        <time>2013-01-27T09:53:36Z</time>
      </trkpt>
      <trkpt lat="57.803884" lon="12.084082">
        <ele>118.0</ele>
        <time>2013-01-27T09:53:40Z</time>
      </trkpt>
      <trkpt lat="57.80398" lon="12.084186">
        <ele>118.0</ele>
        <time>2013-01-27T09:53:44Z</time>
      </trkpt>
      <trkpt lat="57.804076" lon="12.08439">
        <ele>117.0</ele>
        <time>2013-01-27T09:53:49Z</time>
      </trkpt>
      <trkpt lat="57.804139" lon="12.084621">
        <ele>116.0</ele>
        <time>2013-01-27T09:53:54Z</time>
      </trkpt>
      <trkpt lat="57.80414" lon="12.084778">
        <ele>116.0</ele>
        <time>2013-01-27T09:53:58Z</time>
      </trkpt>
      <trkpt lat="57.804163" lon="12.084988">
        <ele>116.0</ele>
        <time>2013-01-27T09:54:02Z</time>
      </trkpt>
      <trkpt lat="57.804125" lon="12.085245">
        <ele>115.0</ele>
        <time>2013-01-27T09:54:06Z</time>
      </trkpt>
      <trkpt lat="57.804124" lon="12.08556">
        <ele>114.0</ele>
        <time>2013-01-27T09:54:11Z</time>
      </trkpt>
      <trkpt lat="57.804162" lon="12.085853">
        <ele>115.0</ele>
        <time>2013-01-27T09:54:15Z</time>
      </trkpt>
      <trkpt lat="57.804206" lon="12.086066">
        <ele>115.0</ele>
        <time>2013-01-27T09:54:19Z</time>
      </trkpt>
      <trkpt lat="57.804204" lon="12.086264">
        <ele>114.0</ele>
        <time>2013-01-27T09:54:24Z</time>
      </trkpt>
      <trkpt lat="57.804173" lon="12.086441">
        <ele>115.0</ele>
        <time>2013-01-27T09:54:29Z</time>
      </trkpt>
      <trkpt lat="57.804221" lon="12.086548">
        <ele>111.0</ele>
        <time>2013-01-27T09:54:42Z</time>
      </trkpt>
      <trkpt lat="57.804259" lon="12.08669">
        <ele>108.0</ele>
        <time>2013-01-27T09:54:53Z</time>
      </trkpt>
      <trkpt lat="57.804329" lon="12.086782">
        <ele>107.0</ele>
        <time>2013-01-27T09:55:01Z</time>
      </trkpt>
      <trkpt lat="57.804362" lon="12.086899">
        <ele>108.0</ele>
        <time>2013-01-27T09:55:18Z</time>
      </trkpt>
      <trkpt lat="57.804424" lon="12.086982">
        <ele>109.0</ele>
        <time>2013-01-27T09:55:24Z</time>
      </trkpt>
      <trkpt lat="57.804477" lon="12.086921">
        <ele>107.0</ele>
        <time>2013-01-27T09:55:32Z</time>
      </trkpt>
      <trkpt lat="57.804555" lon="12.086854">
        <ele>106.0</ele>
        <time>2013-01-27T09:56:19Z</time>
      </trkpt>
      <trkpt lat="57.804674" lon="12.086771">
        <ele>106.0</ele>
        <time>2013-01-27T09:56:24Z</time>
      </trkpt>
      <trkpt lat="57.804785" lon="12.086682">
        <ele>106.0</ele>
        <time>2013-01-27T09:56:29Z</time>
      </trkpt>
      <trkpt lat="57.804872" lon="12.086656">
        <ele>106.0</ele>
        <time>2013-01-27T09:56:34Z</time>
      </trkpt>
      <trkpt lat="57.804946" lon="12.086701">
        <ele>105.0</ele>
        <time>2013-01-27T09:56:38Z</time>
      </trkpt>
      <trkpt lat="57.805023" lon="12.086666">
        <ele>104.0</ele>
        <time>2013-01-27T09:56:44Z</time>
      </trkpt>
      <trkpt lat="57.805101" lon="12.086617">
        <ele>105.0</ele>
        <time>2013-01-27T09:56:49Z</time>
      </trkpt>
      <trkpt lat="57.805171" lon="12.086564">
        <ele>105.0</ele>
        <time>2013-01-27T09:56:54Z</time>
      </trkpt>
      <trkpt lat="57.805248" lon="12.086539">
        <ele>104.0</ele>
        <time>2013-01-27T09:57:00Z</time>
      </trkpt>
      <trkpt lat="57.80525" lon="12.086403">
        <ele>104.0</ele>
        <time>2013-01-27T09:57:12Z</time>
      </trkpt>
      <trkpt lat="57.805344" lon="12.08634">
        <ele>105.0</ele>
        <time>2013-01-27T09:57:16Z</time>
      </trkpt>
      <trkpt lat="57.805437" lon="12.086259">
        <ele>105.0</ele>
        <time>2013-01-27T09:57:20Z</time>
      </trkpt>
      <trkpt lat="57.805534" lon="12.08607">
        <ele>104.0</ele>
        <time>2013-01-27T09:57:25Z</time>
      </trkpt>
      <trkpt lat="57.805631" lon="12.085961">
        <ele>104.0</ele>
        <time>2013-01-27T09:57:30Z</time>
      </trkpt>
      <trkpt lat="57.805723" lon="12.085913">
        <ele>104.0</ele>
        <time>2013-01-27T09:57:34Z</time>
      </trkpt>
      <trkpt lat="57.805822" lon="12.085838">
        <ele>104.0</ele>
        <time>2013-01-27T09:57:38Z</time>
      </trkpt>
      <trkpt lat="57.805951" lon="12.085781">
        <ele>103.0</ele>
        <time>2013-01-27T09:57:43Z</time>
      </trkpt>
      <trkpt lat="57.806046" lon="12.085834">
        <ele>103.0</ele>
        <time>2013-01-27T09:57:47Z</time>
      </trkpt>
      <trkpt lat="57.80612" lon="12.085838">
        <ele>103.0</ele>
        <time>2013-01-27T09:57:51Z</time>
      </trkpt>
      <trkpt lat="57.806239" lon="12.085788">
        <ele>104.0</ele>
        <time>2013-01-27T09:57:56Z</time>
      </trkpt>
      <trkpt lat="57.806316" lon="12.085767">
        <ele>103.0</ele>
        <time>2013-01-27T09:58:00Z</time>
      </trkpt>
      <trkpt lat="57.806401" lon="12.085716">
        <ele>104.0</ele>
        <time>2013-01-27T09:58:04Z</time>
      </trkpt>
      <trkpt lat="57.80647" lon="12.085676">
        <ele>103.0</ele>
        <time>2013-01-27T09:58:08Z</time>
      </trkpt>
      <trkpt lat="57.806548" lon="12.08567">
        <ele>102.0</ele>
        <time>2013-01-27T09:58:12Z</time>
      </trkpt>
      <trkpt lat="57.806683" lon="12.085706">
        <ele>103.0</ele>
        <time>2013-01-27T09:58:16Z</time>
      </trkpt>
      <trkpt lat="57.806794" lon="12.085675">
        <ele>103.0</ele>
        <time>2013-01-27T09:58:20Z</time>
      </trkpt>
      <trkpt lat="57.806906" lon="12.085558">
        <ele>101.0</ele>
        <time>2013-01-27T09:58:25Z</time>
      </trkpt>
      <trkpt lat="57.806992" lon="12.08543">
        <ele>101.0</ele>
        <time>2013-01-27T09:58:29Z</time>
      </trkpt>
      <trkpt lat="57.807111" lon="12.085339">
        <ele>100.0</ele>
        <time>2013-01-27T09:58:34Z</time>
      </trkpt>
      <trkpt lat="57.807217" lon="12.085259">
        <ele>99.0</ele>
        <time>2013-01-27T09:58:39Z</time>
      </trkpt>
      <trkpt lat="57.807297" lon="12.085152">
        <ele>101.0</ele>
        <time>2013-01-27T09:58:43Z</time>
      </trkpt>
      <trkpt lat="57.807372" lon="12.085097">
        <ele>100.0</ele>
        <time>2013-01-27T09:58:57Z</time>
      </trkpt>
      <trkpt lat="57.80744" lon="12.085207">
        <ele>100.0</ele>
        <time>2013-01-27T09:59:03Z</time>
      </trkpt>
      <trkpt lat="57.807491" lon="12.08532">
        <ele>100.0</ele>
        <time>2013-01-27T09:59:08Z</time>
      </trkpt>
      <trkpt lat="57.80751" lon="12.085454">
        <ele>100.0</ele>
        <time>2013-01-27T09:59:12Z</time>
      </trkpt>
      <trkpt lat="57.807543" lon="12.085592">
        <ele>100.0</ele>
        <time>2013-01-27T09:59:18Z</time>
      </trkpt>
      <trkpt lat="57.807588" lon="12.085607">
        <ele>100.0</ele>
        <time>2013-01-27T09:59:22Z</time>
      </trkpt>
      <trkpt lat="57.807717" lon="12.085505">
        <ele>100.0</ele>
        <time>2013-01-27T09:59:26Z</time>
      </trkpt>
      <trkpt lat="57.807785" lon="12.085483">
        <ele>100.0</ele>
        <time>2013-01-27T09:59:30Z</time>
      </trkpt>
      <trkpt lat="57.807867" lon="12.08551">
        <ele>100.0</ele>
        <time>2013-01-27T09:59:35Z</time>
      </trkpt>
      <trkpt lat="57.807955" lon="12.085549">
        <ele>100.0</ele>
        <time>2013-01-27T09:59:43Z</time>
      </trkpt>
      <trkpt lat="57.80806" lon="12.085583">
        <ele>100.0</ele>
        <time>2013-01-27T09:59:48Z</time>
      </trkpt>
      <trkpt lat="57.808122" lon="12.085661">
        <ele>99.0</ele>
        <time>2013-01-27T09:59:52Z</time>
      </trkpt>
      <trkpt lat="57.808179" lon="12.085781">
        <ele>99.0</ele>
        <time>2013-01-27T09:59:58Z</time>
      </trkpt>
      <trkpt lat="57.808259" lon="12.085785">
        <ele>99.0</ele>
        <time>2013-01-27T10:00:06Z</time>
      </trkpt>
      <trkpt lat="57.808337" lon="12.085794">
        <ele>99.0</ele>
        <time>2013-01-27T10:00:19Z</time>
      </trkpt>
      <trkpt lat="57.808413" lon="12.085786">
        <ele>99.0</ele>
        <time>2013-01-27T10:00:36Z</time>
      </trkpt>
      <trkpt lat="57.808489" lon="12.085816">
        <ele>100.0</ele>
        <time>2013-01-27T10:00:41Z</time>
      </trkpt>
      <trkpt lat="57.808565" lon="12.085859">
        <ele>100.0</ele>
        <time>2013-01-27T10:00:49Z</time>
      </trkpt>
      <trkpt lat="57.808626" lon="12.085868">
        <ele>101.0</ele>
        <time>2013-01-27T10:00:58Z</time>
      </trkpt>
      <trkpt lat="57.8087" lon="12.0859">
        <ele>101.0</ele>
        <time>2013-01-27T10:01:04Z</time>
      </trkpt>
      <trkpt lat="57.808766" lon="12.085931">
        <ele>102.0</ele>
        <time>2013-01-27T10:01:12Z</time>
      </trkpt>
      <trkpt lat="57.808825" lon="12.085817">
        <ele>102.0</ele>
        <time>2013-01-27T10:01:19Z</time>
      </trkpt>
      <trkpt lat="57.808877" lon="12.085755">
        <ele>102.0</ele>
        <time>2013-01-27T10:01:26Z</time>
      </trkpt>
      <trkpt lat="57.808947" lon="12.085696">
        <ele>103.0</ele>
        <time>2013-01-27T10:01:32Z</time>
      </trkpt>
      <trkpt lat="57.809029" lon="12.085611">
        <ele>104.0</ele>
        <time>2013-01-27T10:01:36Z</time>
      </trkpt>
      <trkpt lat="57.809106" lon="12.08558">
        <ele>104.0</ele>
        <time>2013-01-27T10:01:42Z</time>
      </trkpt>
      <trkpt lat="57.80918" lon="12.085647">
        <ele>105.0</ele>
        <time>2013-01-27T10:01:48Z</time>
      </trkpt>
      <trkpt lat="57.809259" lon="12.085631">
        <ele>105.0</ele>
        <time>2013-01-27T10:01:53Z</time>
      </trkpt>
      <trkpt lat="57.809348" lon="12.085564">
        <ele>105.0</ele>
        <time>2013-01-27T10:01:58Z</time>
      </trkpt>
      <trkpt lat="57.809411" lon="12.085544">
        <ele>105.0</ele>
        <time>2013-01-27T10:02:03Z</time>
      </trkpt>
      <trkpt lat="57.809488" lon="12.085471">
        <ele>105.0</ele>
        <time>2013-01-27T10:02:07Z</time>
      </trkpt>
      <trkpt lat="57.80955" lon="12.085392">
        <ele>105.0</ele>
        <time>2013-01-27T10:02:11Z</time>
      </trkpt>
      <trkpt lat="57.809613" lon="12.085277">
        <ele>105.0</ele>
        <time>2013-01-27T10:02:15Z</time>
      </trkpt>
      <trkpt lat="57.809695" lon="12.085228">
        <ele>105.0</ele>
        <time>2013-01-27T10:02:20Z</time>
      </trkpt>
      <trkpt lat="57.809766" lon="12.085188">
        <ele>105.0</ele>
        <time>2013-01-27T10:02:26Z</time>
      </trkpt>
      <trkpt lat="57.809853" lon="12.08521">
        <ele>105.0</ele>
        <time>2013-01-27T10:02:33Z</time>
      </trkpt>
      <trkpt lat="57.809957" lon="12.085203">
        <ele>105.0</ele>
        <time>2013-01-27T10:02:37Z</time>
      </trkpt>
      <trkpt lat="57.810033" lon="12.085173">
        <ele>105.0</ele>
        <time>2013-01-27T10:02:42Z</time>
      </trkpt>
      <trkpt lat="57.810112" lon="12.085206">
        <ele>105.0</ele>
        <time>2013-01-27T10:02:54Z</time>
      </trkpt>
      <trkpt lat="57.810196" lon="12.085169">
        <ele>108.0</ele>
        <time>2013-01-27T10:02:59Z</time>
      </trkpt>
      <trkpt lat="57.810272" lon="12.085148">
        <ele>110.0</ele>
        <time>2013-01-27T10:03:03Z</time>
      </trkpt>
      <trkpt lat="57.810371" lon="12.085073">
        <ele>111.0</ele>
        <time>2013-01-27T10:03:07Z</time>
      </trkpt>
      <trkpt lat="57.810443" lon="12.085023">
        <ele>112.0</ele>
        <time>2013-01-27T10:03:11Z</time>
      </trkpt>
      <trkpt lat="57.810525" lon="12.084999">
        <ele>113.0</ele>
        <time>2013-01-27T10:03:15Z</time>
      </trkpt>
      <trkpt lat="57.810612" lon="12.084989">
        <ele>114.0</ele>
        <time>2013-01-27T10:03:22Z</time>
      </trkpt>
      <trkpt lat="57.810666" lon="12.085098">
        <ele>113.0</ele>
        <time>2013-01-27T10:03:29Z</time>
      </trkpt>
      <trkpt lat="57.810726" lon="12.085214">
        <ele>113.0</ele>
        <time>2013-01-27T10:03:38Z</time>
      </trkpt>
      <trkpt lat="57.810706" lon="12.085362">
        <ele>113.0</ele>
        <time>2013-01-27T10:03:43Z</time>
      </trkpt>
      <trkpt lat="57.810734" lon="12.085424">
        <ele>112.0</ele>
        <time>2013-01-27T10:04:17Z</time>
      </trkpt>
      <trkpt lat="57.810821" lon="12.08545">
        <ele>113.0</ele>
        <time>2013-01-27T10:04:22Z</time>
      </trkpt>
      <trkpt lat="57.810896" lon="12.085459">
        <ele>113.0</ele>
        <time>2013-01-27T10:04:26Z</time>
      </trkpt>
      <trkpt lat="57.810983" lon="12.085425">
        <ele>113.0</ele>
        <time>2013-01-27T10:04:33Z</time>
      </trkpt>
      <trkpt lat="57.810989" lon="12.085583">
        <ele>115.0</ele>
        <time>2013-01-27T10:06:05Z</time>
      </trkpt>
      <trkpt lat="57.811027" lon="12.085736">
        <ele>115.0</ele>
        <time>2013-01-27T10:06:19Z</time>
      </trkpt>
      <trkpt lat="57.810992" lon="12.08586">
        <ele>116.0</ele>
        <time>2013-01-27T10:06:24Z</time>
      </trkpt>
      <trkpt lat="57.811004" lon="12.085998">
        <ele>115.0</ele>
        <time>2013-01-27T10:06:30Z</time>
      </trkpt>
      <trkpt lat="57.810994" lon="12.08615">
        <ele>115.0</ele>
        <time>2013-01-27T10:06:37Z</time>
      </trkpt>
      <trkpt lat="57.810949" lon="12.086279">
        <ele>115.0</ele>
        <time>2013-01-27T10:06:44Z</time>
      </trkpt>
      <trkpt lat="57.810922" lon="12.086439">
        <ele>115.0</ele>
        <time>2013-01-27T10:06:49Z</time>
      </trkpt>
      <trkpt lat="57.810919" lon="12.086598">
        <ele>115.0</ele>
        <time>2013-01-27T10:06:55Z</time>
      </trkpt>
      <trkpt lat="57.810948" lon="12.086741">
        <ele>115.0</ele>
        <time>2013-01-27T10:07:02Z</time>
      </trkpt>
      <trkpt lat="57.810968" lon="12.086875">
        <ele>115.0</ele>
        <time>2013-01-27T10:07:09Z</time>
      </trkpt>
      <trkpt lat="57.811003" lon="12.087034">
        <ele>115.0</ele>
        <time>2013-01-27T10:07:14Z</time>
      </trkpt>
      <trkpt lat="57.8109" lon="12.086792">
        <ele>115.0</ele>
        <time>2013-01-27T10:07:19Z</time>
      </trkpt>
      <trkpt lat="57.810959" lon="12.086973">
        <ele>115.0</ele>
        <time>2013-01-27T10:07:24Z</time>
      </trkpt>
      <trkpt lat="57.811035" lon="12.087035">
        <ele>116.0</ele>
        <time>2013-01-27T10:07:30Z</time>
      </trkpt>
      <trkpt lat="57.811102" lon="12.087121">
        <ele>116.0</ele>
        <time>2013-01-27T10:07:35Z</time>
      </trkpt>
      <trkpt lat="57.811161" lon="12.087347">
        <ele>116.0</ele>
        <time>2013-01-27T10:07:39Z</time>
      </trkpt>
      <trkpt lat="57.811239" lon="12.087477">
        <ele>116.0</ele>
        <time>2013-01-27T10:07:43Z</time>
      </trkpt>
      <trkpt lat="57.811303" lon="12.087596">
        <ele>117.0</ele>
        <time>2013-01-27T10:07:48Z</time>
      </trkpt>
      <trkpt lat="57.811366" lon="12.087648">
        <ele>117.0</ele>
        <time>2013-01-27T10:07:53Z</time>
      </trkpt>
      <trkpt lat="57.811428" lon="12.087715">
        <ele>115.0</ele>
        <time>2013-01-27T10:08:02Z</time>
      </trkpt>
      <trkpt lat="57.811497" lon="12.087802">
        <ele>115.0</ele>
        <time>2013-01-27T10:08:16Z</time>
      </trkpt>
      <trkpt lat="57.811488" lon="12.087938">
        <ele>119.0</ele>
        <time>2013-01-27T10:08:48Z</time>
      </trkpt>
      <trkpt lat="57.811501" lon="12.088093">
        <ele>120.0</ele>
        <time>2013-01-27T10:08:52Z</time>
      </trkpt>
      <trkpt lat="57.811549" lon="12.088395">
        <ele>121.0</ele>
        <time>2013-01-27T10:08:57Z</time>
      </trkpt>
      <trkpt lat="57.811583" lon="12.088698">
        <ele>123.0</ele>
        <time>2013-01-27T10:09:01Z</time>
      </trkpt>
      <trkpt lat="57.811612" lon="12.088896">
        <ele>124.0</ele>
        <time>2013-01-27T10:09:05Z</time>
      </trkpt>
      <trkpt lat="57.811654" lon="12.089056">
        <ele>124.0</ele>
        <time>2013-01-27T10:09:09Z</time>
      </trkpt>
      <trkpt lat="57.811692" lon="12.089202">
        <ele>124.0</ele>
        <time>2013-01-27T10:09:17Z</time>
      </trkpt>
      <trkpt lat="57.811756" lon="12.089306">
        <ele>124.0</ele>
        <time>2013-01-27T10:09:23Z</time>
      </trkpt>
      <trkpt lat="57.811814" lon="12.089436">
        <ele>125.0</ele>
        <time>2013-01-27T10:09:28Z</time>
      </trkpt>
      <trkpt lat="57.811862" lon="12.08956">
        <ele>125.0</ele>
        <time>2013-01-27T10:09:33Z</time>
      </trkpt>
      <trkpt lat="57.811919" lon="12.089695">
        <ele>125.0</ele>
        <time>2013-01-27T10:09:37Z</time>
      </trkpt>
      <trkpt lat="57.811895" lon="12.089835">
        <ele>125.0</ele>
        <time>2013-01-27T10:09:42Z</time>
      </trkpt>
      <trkpt lat="57.811859" lon="12.089997">
        <ele>125.0</ele>
        <time>2013-01-27T10:09:46Z</time>
      </trkpt>
      <trkpt lat="57.811919" lon="12.0901">
        <ele>125.0</ele>
        <time>2013-01-27T10:09:50Z</time>
      </trkpt>
      <trkpt lat="57.811991" lon="12.090201">
        <ele>125.0</ele>
        <time>2013-01-27T10:09:56Z</time>
      </trkpt>
      <trkpt lat="57.812068" lon="12.090299">
        <ele>126.0</ele>
        <time>2013-01-27T10:10:01Z</time>
      </trkpt>
      <trkpt lat="57.812124" lon="12.090364">
        <ele>126.0</ele>
        <time>2013-01-27T10:10:06Z</time>
      </trkpt>
      <trkpt lat="57.812171" lon="12.090501">
        <ele>127.0</ele>
        <time>2013-01-27T10:10:11Z</time>
      </trkpt>
      <trkpt lat="57.812198" lon="12.090655">
        <ele>127.0</ele>
        <time>2013-01-27T10:10:17Z</time>
      </trkpt>
      <trkpt lat="57.812239" lon="12.0908">
        <ele>128.0</ele>
        <time>2013-01-27T10:10:22Z</time>
      </trkpt>
      <trkpt lat="57.812246" lon="12.090923">
        <ele>128.0</ele>
        <time>2013-01-27T10:10:27Z</time>
      </trkpt>
      <trkpt lat="57.812289" lon="12.091089">
        <ele>128.0</ele>
        <time>2013-01-27T10:10:32Z</time>
      </trkpt>
      <trkpt lat="57.812313" lon="12.091189">
        <ele>128.0</ele>
        <time>2013-01-27T10:10:36Z</time>
      </trkpt>
      <trkpt lat="57.812311" lon="12.091325">
        <ele>129.0</ele>
        <time>2013-01-27T10:10:41Z</time>
      </trkpt>
      <trkpt lat="57.812331" lon="12.091446">
        <ele>130.0</ele>
        <time>2013-01-27T10:10:45Z</time>
      </trkpt>
      <trkpt lat="57.812366" lon="12.091667">
        <ele>130.0</ele>
        <time>2013-01-27T10:10:50Z</time>
      </trkpt>
      <trkpt lat="57.812361" lon="12.091797">
        <ele>130.0</ele>
        <time>2013-01-27T10:10:55Z</time>
      </trkpt>
      <trkpt lat="57.812441" lon="12.091986">
        <ele>129.0</ele>
        <time>2013-01-27T10:11:00Z</time>
      </trkpt>
      <trkpt lat="57.81252" lon="12.092121">
        <ele>128.0</ele>
        <time>2013-01-27T10:11:05Z</time>
      </trkpt>
      <trkpt lat="57.812607" lon="12.092373">
        <ele>128.0</ele>
        <time>2013-01-27T10:11:10Z</time>
      </trkpt>
      <trkpt lat="57.812695" lon="12.092542">
        <ele>128.0</ele>
        <time>2013-01-27T10:11:15Z</time>
      </trkpt>
      <trkpt lat="57.812787" lon="12.092678">
        <ele>126.0</ele>
        <time>2013-01-27T10:11:20Z</time>
      </trkpt>
      <trkpt lat="57.812803" lon="12.092766">
        <ele>125.0</ele>
        <time>2013-01-27T10:11:40Z</time>
      </trkpt>
      <trkpt lat="57.812866" lon="12.092861">
        <ele>127.0</ele>
        <time>2013-01-27T10:11:44Z</time>
      </trkpt>
      <trkpt lat="57.812942" lon="12.092938">
        <ele>127.0</ele>
        <time>2013-01-27T10:12:03Z</time>
      </trkpt>
      <trkpt lat="57.812999" lon="12.092813">
        <ele>127.0</ele>
        <time>2013-01-27T10:13:58Z</time>
      </trkpt>
      <trkpt lat="57.813076" lon="12.092649">
        <ele>126.0</ele>
        <time>2013-01-27T10:14:02Z</time>
      </trkpt>
      <trkpt lat="57.813153" lon="12.092549">
        <ele>126.0</ele>
        <time>2013-01-27T10:14:06Z</time>
      </trkpt>
      <trkpt lat="57.813269" lon="12.092389">
        <ele>126.0</ele>
        <time>2013-01-27T10:14:11Z</time>
      </trkpt>
      <trkpt lat="57.813338" lon="12.092274">
        <ele>125.0</ele>
        <time>2013-01-27T10:14:15Z</time>
      </trkpt>
      <trkpt lat="57.813511" lon="12.092254">
        <ele>125.0</ele>
        <time>2013-01-27T10:14:20Z</time>
      </trkpt>
      <trkpt lat="57.813642" lon="12.092232">
        <ele>125.0</ele>
        <time>2013-01-27T10:14:24Z</time>
      </trkpt>
      <trkpt lat="57.813753" lon="12.092208">
        <ele>125.0</ele>
        <time>2013-01-27T10:14:28Z</time>
      </trkpt>
      <trkpt lat="57.813829" lon="12.09224">
        <ele>124.0</ele>
        <time>2013-01-27T10:14:37Z</time>
      </trkpt>
      <trkpt lat="57.813903" lon="12.092315">
        <ele>124.0</ele>
        <time>2013-01-27T10:14:42Z</time>
      </trkpt>
      <trkpt lat="57.814029" lon="12.092424">
        <ele>124.0</ele>
        <time>2013-01-27T10:14:47Z</time>
      </trkpt>
      <trkpt lat="57.814128" lon="12.092507">
        <ele>127.0</ele>
        <time>2013-01-27T10:14:52Z</time>
      </trkpt>
      <trkpt lat="57.814261" lon="12.092591">
        <ele>128.0</ele>
        <time>2013-01-27T10:14:56Z</time>
      </trkpt>
      <trkpt lat="57.814393" lon="12.092701">
        <ele>127.0</ele>
        <time>2013-01-27T10:15:00Z</time>
      </trkpt>
      <trkpt lat="57.814497" lon="12.0929">
        <ele>127.0</ele>
        <time>2013-01-27T10:15:05Z</time>
      </trkpt>
      <trkpt lat="57.814552" lon="12.092997">
        <ele>127.0</ele>
        <time>2013-01-27T10:15:10Z</time>
      </trkpt>
      <trkpt lat="57.814698" lon="12.093029">
        <ele>126.0</ele>
        <time>2013-01-27T10:15:15Z</time>
      </trkpt>
      <trkpt lat="57.814817" lon="12.093032">
        <ele>125.0</ele>
        <time>2013-01-27T10:15:20Z</time>
      </trkpt>
      <trkpt lat="57.815003" lon="12.093031">
        <ele>124.0</ele>
        <time>2013-01-27T10:15:24Z</time>
      </trkpt>
      <trkpt lat="57.815183" lon="12.093118">
        <ele>124.0</ele>
        <time>2013-01-27T10:15:28Z</time>
      </trkpt>
      <trkpt lat="57.815288" lon="12.0931">
        <ele>124.0</ele>
        <time>2013-01-27T10:15:32Z</time>
      </trkpt>
      <trkpt lat="57.815436" lon="12.093055">
        <ele>123.0</ele>
        <time>2013-01-27T10:15:36Z</time>
      </trkpt>
      <trkpt lat="57.815648" lon="12.09302">
        <ele>122.0</ele>
        <time>2013-01-27T10:15:41Z</time>
      </trkpt>
      <trkpt lat="57.815748" lon="12.093075">
        <ele>123.0</ele>
        <time>2013-01-27T10:15:45Z</time>
      </trkpt>
      <trkpt lat="57.815945" lon="12.093094">
        <ele>124.0</ele>
        <time>2013-01-27T10:15:50Z</time>
      </trkpt>
      <trkpt lat="57.816068" lon="12.093031">
        <ele>123.0</ele>
        <time>2013-01-27T10:15:54Z</time>
      </trkpt>
      <trkpt lat="57.816239" lon="12.092978">
        <ele>122.0</ele>
        <time>2013-01-27T10:15:59Z</time>
      </trkpt>
      <trkpt lat="57.816385" lon="12.093104">
        <ele>122.0</ele>
        <time>2013-01-27T10:16:04Z</time>
      </trkpt>
      <trkpt lat="57.816497" lon="12.093067">
        <ele>121.0</ele>
        <time>2013-01-27T10:16:08Z</time>
      </trkpt>
      <trkpt lat="57.816627" lon="12.093093">
        <ele>120.0</ele>
        <time>2013-01-27T10:16:12Z</time>
      </trkpt>
      <trkpt lat="57.816752" lon="12.093254">
        <ele>119.0</ele>
        <time>2013-01-27T10:16:16Z</time>
      </trkpt>
      <trkpt lat="57.816866" lon="12.093299">
        <ele>118.0</ele>
        <time>2013-01-27T10:16:21Z</time>
      </trkpt>
      <trkpt lat="57.816939" lon="12.093244">
        <ele>117.0</ele>
        <time>2013-01-27T10:16:25Z</time>
      </trkpt>
      <trkpt lat="57.817076" lon="12.093288">
        <ele>117.0</ele>
        <time>2013-01-27T10:16:30Z</time>
      </trkpt>
      <trkpt lat="57.817176" lon="12.093255">
        <ele>117.0</ele>
        <time>2013-01-27T10:16:34Z</time>
      </trkpt>
      <trkpt lat="57.817236" lon="12.093152">
        <ele>115.0</ele>
        <time>2013-01-27T10:16:38Z</time>
      </trkpt>
      <trkpt lat="57.817323" lon="12.093087">
        <ele>114.0</ele>
        <time>2013-01-27T10:16:43Z</time>
      </trkpt>
      <trkpt lat="57.817415" lon="12.093043">
        <ele>114.0</ele>
        <time>2013-01-27T10:16:48Z</time>
      </trkpt>
      <trkpt lat="57.817502" lon="12.093047">
        <ele>116.0</ele>
        <time>2013-01-27T10:17:07Z</time>
      </trkpt>
      <trkpt lat="57.817579" lon="12.093066">
        <ele>118.0</ele>
        <time>2013-01-27T10:20:56Z</time>
      </trkpt>
      <trkpt lat="57.817635" lon="12.093187">
        <ele>118.0</ele>
        <time>2013-01-27T10:21:03Z</time>
      </trkpt>
      <trkpt lat="57.817712" lon="12.093201">
        <ele>118.0</ele>
        <time>2013-01-27T10:21:08Z</time>
      </trkpt>
      <trkpt lat="57.817819" lon="12.093205">
        <ele>118.0</ele>
        <time>2013-01-27T10:21:13Z</time>
      </trkpt>
      <trkpt lat="57.8179" lon="12.093186">
        <ele>118.0</ele>
        <time>2013-01-27T10:21:17Z</time>
      </trkpt>
      <trkpt lat="57.817984" lon="12.093154">
        <ele>118.0</ele>
        <time>2013-01-27T10:21:21Z</time>
      </trkpt>
      <trkpt lat="57.818059" lon="12.093075">
        <ele>118.0</ele>
        <time>2013-01-27T10:21:25Z</time>
      </trkpt>
      <trkpt lat="57.818153" lon="12.092979">
        <ele>118.0</ele>
        <time>2013-01-27T10:21:30Z</time>
      </trkpt>
      <trkpt lat="57.818229" lon="12.092925">
        <ele>118.0</ele>
        <time>2013-01-27T10:21:34Z</time>
      </trkpt>
      <trkpt lat="57.818315" lon="12.09291">
        <ele>118.0</ele>
        <time>2013-01-27T10:21:39Z</time>
      </trkpt>
      <trkpt lat="57.818386" lon="12.092892">
        <ele>118.0</ele>
        <time>2013-01-27T10:21:44Z</time>
      </trkpt>
      <trkpt lat="57.818461" lon="12.092897">
        <ele>120.0</ele>
        <time>2013-01-27T10:21:48Z</time>
      </trkpt>
      <trkpt lat="57.818548" lon="12.092918">
        <ele>119.0</ele>
        <time>2013-01-27T10:21:52Z</time>
      </trkpt>
      <trkpt lat="57.818693" lon="12.09299">
        <ele>119.0</ele>
        <time>2013-01-27T10:21:57Z</time>
      </trkpt>
      <trkpt lat="57.818777" lon="12.09299">
        <ele>118.0</ele>
        <time>2013-01-27T10:22:01Z</time>
      </trkpt>
      <trkpt lat="57.818847" lon="12.092972">
        <ele>118.0</ele>
        <time>2013-01-27T10:22:05Z</time>
      </trkpt>
      <trkpt lat="57.818927" lon="12.092978">
        <ele>118.0</ele>
        <time>2013-01-27T10:22:10Z</time>
      </trkpt>
      <trkpt lat="57.819009" lon="12.092958">
        <ele>118.0</ele>
        <time>2013-01-27T10:22:15Z</time>
      </trkpt>
      <trkpt lat="57.819076" lon="12.093082">
        <ele>118.0</ele>
        <time>2013-01-27T10:22:19Z</time>
      </trkpt>
      <trkpt lat="57.819167" lon="12.093175">
        <ele>118.0</ele>
        <time>2013-01-27T10:22:23Z</time>
      </trkpt>
      <trkpt lat="57.81926" lon="12.09322">
        <ele>118.0</ele>
        <time>2013-01-27T10:22:27Z</time>
      </trkpt>
      <trkpt lat="57.819342" lon="12.093361">
        <ele>118.0</ele>
        <time>2013-01-27T10:22:32Z</time>
      </trkpt>
      <trkpt lat="57.819413" lon="12.093543">
        <ele>119.0</ele>
        <time>2013-01-27T10:22:37Z</time>
      </trkpt>
      <trkpt lat="57.819478" lon="12.093699">
        <ele>120.0</ele>
        <time>2013-01-27T10:22:41Z</time>
      </trkpt>
      <trkpt lat="57.819541" lon="12.093767">
        <ele>120.0</ele>
        <time>2013-01-27T10:22:45Z</time>
      </trkpt>
      <trkpt lat="57.819604" lon="12.093851">
        <ele>119.0</ele>
        <time>2013-01-27T10:22:49Z</time>
      </trkpt>
      <trkpt lat="57.819686" lon="12.093952">
        <ele>120.0</ele>
        <time>2013-01-27T10:22:54Z</time>
      </trkpt>
      <trkpt lat="57.819756" lon="12.094059">
        <ele>119.0</ele>
        <time>2013-01-27T10:22:58Z</time>
      </trkpt>
      <trkpt lat="57.8198" lon="12.094166">
        <ele>118.0</ele>
        <time>2013-01-27T10:23:02Z</time>
      </trkpt>
      <trkpt lat="57.81985" lon="12.094289">
        <ele>118.0</ele>
        <time>2013-01-27T10:23:06Z</time>
      </trkpt>
      <trkpt lat="57.819904" lon="12.094433">
        <ele>118.0</ele>
        <time>2013-01-27T10:23:11Z</time>
      </trkpt>
      <trkpt lat="57.819974" lon="12.094484">
        <ele>118.0</ele>
        <time>2013-01-27T10:23:16Z</time>
      </trkpt>
      <trkpt lat="57.820045" lon="12.094592">
        <ele>118.0</ele>
        <time>2013-01-27T10:23:21Z</time>
      </trkpt>
      <trkpt lat="57.820123" lon="12.094658">
        <ele>119.0</ele>
        <time>2013-01-27T10:23:26Z</time>
      </trkpt>
      <trkpt lat="57.820191" lon="12.094717">
        <ele>120.0</ele>
        <time>2013-01-27T10:23:31Z</time>
      </trkpt>
      <trkpt lat="57.820251" lon="12.094841">
        <ele>120.0</ele>
        <time>2013-01-27T10:23:36Z</time>
      </trkpt>
      <trkpt lat="57.82027" lon="12.095034">
        <ele>121.0</ele>
        <time>2013-01-27T10:23:41Z</time>
      </trkpt>
      <trkpt lat="57.820336" lon="12.095163">
        <ele>121.0</ele>
        <time>2013-01-27T10:23:46Z</time>
      </trkpt>
      <trkpt lat="57.820439" lon="12.095234">
        <ele>121.0</ele>
        <time>2013-01-27T10:23:50Z</time>
      </trkpt>
      <trkpt lat="57.820542" lon="12.095221">
        <ele>120.0</ele>
        <time>2013-01-27T10:23:55Z</time>
      </trkpt>
      <trkpt lat="57.820632" lon="12.095261">
        <ele>120.0</ele>
        <time>2013-01-27T10:24:00Z</time>
      </trkpt>
      <trkpt lat="57.820726" lon="12.095299">
        <ele>119.0</ele>
        <time>2013-01-27T10:24:04Z</time>
      </trkpt>
      <trkpt lat="57.820841" lon="12.095338">
        <ele>119.0</ele>
        <time>2013-01-27T10:24:08Z</time>
      </trkpt>
      <trkpt lat="57.82094" lon="12.095332">
        <ele>119.0</ele>
        <time>2013-01-27T10:24:12Z</time>
      </trkpt>
      <trkpt lat="57.821039" lon="12.095282">
        <ele>120.0</ele>
        <time>2013-01-27T10:24:16Z</time>
      </trkpt>
      <trkpt lat="57.821102" lon="12.095215">
        <ele>118.0</ele>
        <time>2013-01-27T10:24:23Z</time>
      </trkpt>
      <trkpt lat="57.821162" lon="12.095078">
        <ele>122.0</ele>
        <time>2013-01-27T10:24:29Z</time>
      </trkpt>
      <trkpt lat="57.821148" lon="12.094934">
        <ele>123.0</ele>
        <time>2013-01-27T10:24:35Z</time>
      </trkpt>
      <trkpt lat="57.821163" lon="12.094767">
        <ele>122.0</ele>
        <time>2013-01-27T10:24:40Z</time>
      </trkpt>
      <trkpt lat="57.821192" lon="12.09462">
        <ele>122.0</ele>
        <time>2013-01-27T10:24:45Z</time>
      </trkpt>
      <trkpt lat="57.8212" lon="12.094505">
        <ele>122.0</ele>
        <time>2013-01-27T10:24:49Z</time>
      </trkpt>
      <trkpt lat="57.821187" lon="12.094346">
        <ele>122.0</ele>
        <time>2013-01-27T10:24:53Z</time>
      </trkpt>
      <trkpt lat="57.82117" lon="12.094165">
        <ele>122.0</ele>
        <time>2013-01-27T10:24:57Z</time>
      </trkpt>
      <trkpt lat="57.821126" lon="12.094039">
        <ele>122.0</ele>
        <time>2013-01-27T10:25:02Z</time>
      </trkpt>
      <trkpt lat="57.821096" lon="12.093855">
        <ele>121.0</ele>
        <time>2013-01-27T10:25:06Z</time>
      </trkpt>
      <trkpt lat="57.821101" lon="12.093703">
        <ele>121.0</ele>
        <time>2013-01-27T10:25:10Z</time>
      </trkpt>
      <trkpt lat="57.821093" lon="12.093525">
        <ele>120.0</ele>
        <time>2013-01-27T10:25:14Z</time>
      </trkpt>
      <trkpt lat="57.821067" lon="12.093326">
        <ele>119.0</ele>
        <time>2013-01-27T10:25:19Z</time>
      </trkpt>
      <trkpt lat="57.821032" lon="12.093158">
        <ele>119.0</ele>
        <time>2013-01-27T10:25:23Z</time>
      </trkpt>
      <trkpt lat="57.820977" lon="12.093009">
        <ele>120.0</ele>
        <time>2013-01-27T10:25:27Z</time>
      </trkpt>
      <trkpt lat="57.820937" lon="12.092841">
        <ele>119.0</ele>
        <time>2013-01-27T10:25:31Z</time>
      </trkpt>
      <trkpt lat="57.820933" lon="12.092676">
        <ele>119.0</ele>
        <time>2013-01-27T10:25:35Z</time>
      </trkpt>
      <trkpt lat="57.820928" lon="12.092498">
        <ele>119.0</ele>
        <time>2013-01-27T10:25:39Z</time>
      </trkpt>
      <trkpt lat="57.820916" lon="12.092365">
        <ele>120.0</ele>
        <time>2013-01-27T10:25:46Z</time>
      </trkpt>
      <trkpt lat="57.820877" lon="12.092206">
        <ele>121.0</ele>
        <time>2013-01-27T10:25:52Z</time>
      </trkpt>
      <trkpt lat="57.820904" lon="12.092106">
        <ele>122.0</ele>
        <time>2013-01-27T10:26:00Z</time>
      </trkpt>
      <trkpt lat="57.82091" lon="12.091869">
        <ele>123.0</ele>
        <time>2013-01-27T10:26:04Z</time>
      </trkpt>
      <trkpt lat="57.82094" lon="12.091688">
        <ele>124.0</ele>
        <time>2013-01-27T10:26:09Z</time>
      </trkpt>
      <trkpt lat="57.820923" lon="12.091496">
        <ele>124.0</ele>
        <time>2013-01-27T10:26:13Z</time>
      </trkpt>
      <trkpt lat="57.820953" lon="12.091245">
        <ele>125.0</ele>
        <time>2013-01-27T10:26:18Z</time>
      </trkpt>
      <trkpt lat="57.820994" lon="12.090952">
        <ele>126.0</ele>
        <time>2013-01-27T10:26:23Z</time>
      </trkpt>
      <trkpt lat="57.821007" lon="12.090846">
        <ele>125.0</ele>
        <time>2013-01-27T10:26:25Z</time>
      </trkpt>
      <trkpt lat="57.821047" lon="12.090653">
        <ele>125.0</ele>
        <time>2013-01-27T10:26:29Z</time>
      </trkpt>
      <trkpt lat="57.821103" lon="12.090445">
        <ele>126.0</ele>
        <time>2013-01-27T10:26:33Z</time>
      </trkpt>
      <trkpt lat="57.821171" lon="12.090217">
        <ele>126.0</ele>
        <time>2013-01-27T10:26:37Z</time>
      </trkpt>
      <trkpt lat="57.821234" lon="12.089844">
        <ele>126.0</ele>
        <time>2013-01-27T10:26:42Z</time>
      </trkpt>
      <trkpt lat="57.821302" lon="12.089553">
        <ele>125.0</ele>
        <time>2013-01-27T10:26:47Z</time>
      </trkpt>
      <trkpt lat="57.821369" lon="12.089287">
        <ele>125.0</ele>
        <time>2013-01-27T10:26:51Z</time>
      </trkpt>
      <trkpt lat="57.821413" lon="12.089047">
        <ele>125.0</ele>
        <time>2013-01-27T10:26:55Z</time>
      </trkpt>
      <trkpt lat="57.82147" lon="12.088854">
        <ele>124.0</ele>
        <time>2013-01-27T10:27:00Z</time>
      </trkpt>
      <trkpt lat="57.821486" lon="12.088635">
        <ele>125.0</ele>
        <time>2013-01-27T10:27:04Z</time>
      </trkpt>
      <trkpt lat="57.82157" lon="12.088432">
        <ele>125.0</ele>
        <time>2013-01-27T10:27:09Z</time>
      </trkpt>
      <trkpt lat="57.821653" lon="12.088236">
        <ele>125.0</ele>
        <time>2013-01-27T10:27:13Z</time>
      </trkpt>
      <trkpt lat="57.821769" lon="12.088002">
        <ele>124.0</ele>
        <time>2013-01-27T10:27:18Z</time>
      </trkpt>
      <trkpt lat="57.821855" lon="12.087828">
        <ele>124.0</ele>
        <time>2013-01-27T10:27:22Z</time>
      </trkpt>
      <trkpt lat="57.821958" lon="12.087638">
        <ele>124.0</ele>
        <time>2013-01-27T10:27:27Z</time>
      </trkpt>
      <trkpt lat="57.822077" lon="12.087405">
        <ele>123.0</ele>
        <time>2013-01-27T10:27:32Z</time>
      </trkpt>
      <trkpt lat="57.822188" lon="12.087282">
        <ele>122.0</ele>
        <time>2013-01-27T10:27:36Z</time>
      </trkpt>
      <trkpt lat="57.822292" lon="12.087119">
        <ele>121.0</ele>
        <time>2013-01-27T10:27:41Z</time>
      </trkpt>
      <trkpt lat="57.822392" lon="12.086997">
        <ele>122.0</ele>
        <time>2013-01-27T10:27:45Z</time>
      </trkpt>
      <trkpt lat="57.822518" lon="12.086792">
        <ele>121.0</ele>
        <time>2013-01-27T10:27:49Z</time>
      </trkpt>
      <trkpt lat="57.822582" lon="12.086571">
        <ele>121.0</ele>
        <time>2013-01-27T10:27:54Z</time>
      </trkpt>
      <trkpt lat="57.822543" lon="12.086434">
        <ele>121.0</ele>
        <time>2013-01-27T10:27:59Z</time>
      </trkpt>
      <trkpt lat="57.822436" lon="12.086272">
        <ele>121.0</ele>
        <time>2013-01-27T10:28:04Z</time>
      </trkpt>
      <trkpt lat="57.822309" lon="12.086175">
        <ele>121.0</ele>
        <time>2013-01-27T10:28:09Z</time>
      </trkpt>
      <trkpt lat="57.82222" lon="12.086063">
        <ele>120.0</ele>
        <time>2013-01-27T10:28:13Z</time>
      </trkpt>
      <trkpt lat="57.82222" lon="12.085899">
        <ele>121.0</ele>
        <time>2013-01-27T10:29:20Z</time>
      </trkpt>
      <trkpt lat="57.822174" lon="12.085386">
        <ele>118.0</ele>
        <time>2013-01-27T10:29:24Z</time>
      </trkpt>
      <trkpt lat="57.822239" lon="12.085287">
        <ele>118.0</ele>
        <time>2013-01-27T10:29:39Z</time>
      </trkpt>
      <trkpt lat="57.822217" lon="12.085161">
        <ele>119.0</ele>
        <time>2013-01-27T10:29:45Z</time>
      </trkpt>
      <trkpt lat="57.822265" lon="12.084999">
        <ele>119.0</ele>
        <time>2013-01-27T10:29:49Z</time>
      </trkpt>
      <trkpt lat="57.822256" lon="12.08486">
        <ele>118.0</ele>
        <time>2013-01-27T10:29:55Z</time>
      </trkpt>
      <trkpt lat="57.822327" lon="12.084823">
        <ele>118.0</ele>
        <time>2013-01-27T10:30:02Z</time>
      </trkpt>
      <trkpt lat="57.822354" lon="12.084685">
        <ele>119.0</ele>
        <time>2013-01-27T10:30:07Z</time>
      </trkpt>
      <trkpt lat="57.822403" lon="12.084537">
        <ele>118.0</ele>
        <time>2013-01-27T10:30:18Z</time>
      </trkpt>
      <trkpt lat="57.822377" lon="12.084403">
        <ele>118.0</ele>
        <time>2013-01-27T10:30:24Z</time>
      </trkpt>
      <trkpt lat="57.822392" lon="12.084241">
        <ele>118.0</ele>
        <time>2013-01-27T10:30:28Z</time>
      </trkpt>
      <trkpt lat="57.822459" lon="12.084107">
        <ele>119.0</ele>
        <time>2013-01-27T10:30:32Z</time>
      </trkpt>
      <trkpt lat="57.822509" lon="12.083943">
        <ele>120.0</ele>
        <time>2013-01-27T10:30:37Z</time>
      </trkpt>
      <trkpt lat="57.822536" lon="12.083782">
        <ele>120.0</ele>
        <time>2013-01-27T10:31:04Z</time>
      </trkpt>
      <trkpt lat="57.82261" lon="12.083712">
        <ele>127.0</ele>
        <time>2013-01-27T10:33:36Z</time>
      </trkpt>
      <trkpt lat="57.822663" lon="12.083587">
        <ele>128.0</ele>
        <time>2013-01-27T10:34:04Z</time>
      </trkpt>
      <trkpt lat="57.822694" lon="12.083301">
        <ele>130.0</ele>
        <time>2013-01-27T10:34:08Z</time>
      </trkpt>
      <trkpt lat="57.82272" lon="12.08307">
        <ele>130.0</ele>
        <time>2013-01-27T10:34:12Z</time>
      </trkpt>
      <trkpt lat="57.822792" lon="12.082893">
        <ele>130.0</ele>
        <time>2013-01-27T10:34:16Z</time>
      </trkpt>
      <trkpt lat="57.822825" lon="12.082718">
        <ele>129.0</ele>
        <time>2013-01-27T10:34:20Z</time>
      </trkpt>
      <trkpt lat="57.822889" lon="12.082505">
        <ele>129.0</ele>
        <time>2013-01-27T10:34:25Z</time>
      </trkpt>
      <trkpt lat="57.822979" lon="12.082349">
        <ele>129.0</ele>
        <time>2013-01-27T10:34:30Z</time>
      </trkpt>
      <trkpt lat="57.823083" lon="12.082185">
        <ele>129.0</ele>
        <time>2013-01-27T10:34:34Z</time>
      </trkpt>
      <trkpt lat="57.823145" lon="12.08198">
        <ele>128.0</ele>
        <time>2013-01-27T10:34:39Z</time>
      </trkpt>
      <trkpt lat="57.823187" lon="12.08175">
        <ele>128.0</ele>
        <time>2013-01-27T10:34:43Z</time>
      </trkpt>
      <trkpt lat="57.823239" lon="12.081506">
        <ele>128.0</ele>
        <time>2013-01-27T10:34:47Z</time>
      </trkpt>
      <trkpt lat="57.823349" lon="12.081207">
        <ele>128.0</ele>
        <time>2013-01-27T10:34:52Z</time>
      </trkpt>
      <trkpt lat="57.82345" lon="12.080968">
        <ele>127.0</ele>
        <time>2013-01-27T10:34:56Z</time>
      </trkpt>
      <trkpt lat="57.823538" lon="12.080729">
        <ele>126.0</ele>
        <time>2013-01-27T10:35:00Z</time>
      </trkpt>
      <trkpt lat="57.823636" lon="12.080601">
        <ele>125.0</ele>
        <time>2013-01-27T10:35:04Z</time>
      </trkpt>
      <trkpt lat="57.82378" lon="12.080416">
        <ele>125.0</ele>
        <time>2013-01-27T10:35:08Z</time>
      </trkpt>
      <trkpt lat="57.82387" lon="12.080099">
        <ele>125.0</ele>
        <time>2013-01-27T10:35:13Z</time>
      </trkpt>
      <trkpt lat="57.82392" lon="12.079801">
        <ele>124.0</ele>
        <time>2013-01-27T10:35:17Z</time>
      </trkpt>
      <trkpt lat="57.823977" lon="12.079449">
        <ele>124.0</ele>
        <time>2013-01-27T10:35:22Z</time>
      </trkpt>
      <trkpt lat="57.824054" lon="12.079171">
        <ele>124.0</ele>
        <time>2013-01-27T10:35:26Z</time>
      </trkpt>
      <trkpt lat="57.824135" lon="12.078895">
        <ele>124.0</ele>
        <time>2013-01-27T10:35:30Z</time>
      </trkpt>
      <trkpt lat="57.824148" lon="12.078611">
        <ele>125.0</ele>
        <time>2013-01-27T10:35:34Z</time>
      </trkpt>
      <trkpt lat="57.824173" lon="12.078257">
        <ele>125.0</ele>
        <time>2013-01-27T10:35:39Z</time>
      </trkpt>
      <trkpt lat="57.824258" lon="12.078018">
        <ele>125.0</ele>
        <time>2013-01-27T10:35:44Z</time>
      </trkpt>
      <trkpt lat="57.824314" lon="12.077782">
        <ele>125.0</ele>
        <time>2013-01-27T10:35:48Z</time>
      </trkpt>
      <trkpt lat="57.824336" lon="12.077558">
        <ele>124.0</ele>
        <time>2013-01-27T10:35:53Z</time>
      </trkpt>
      <trkpt lat="57.824298" lon="12.077424">
        <ele>123.0</ele>
        <time>2013-01-27T10:35:58Z</time>
      </trkpt>
      <trkpt lat="57.824321" lon="12.077308">
        <ele>123.0</ele>
        <time>2013-01-27T10:36:03Z</time>
      </trkpt>
      <trkpt lat="57.824414" lon="12.077004">
        <ele>122.0</ele>
        <time>2013-01-27T10:36:08Z</time>
      </trkpt>
      <trkpt lat="57.824458" lon="12.076692">
        <ele>122.0</ele>
        <time>2013-01-27T10:36:12Z</time>
      </trkpt>
      <trkpt lat="57.824369" lon="12.076275">
        <ele>123.0</ele>
        <time>2013-01-27T10:36:16Z</time>
      </trkpt>
      <trkpt lat="57.824408" lon="12.076186">
        <ele>122.0</ele>
        <time>2013-01-27T10:36:20Z</time>
      </trkpt>
      <trkpt lat="57.824396" lon="12.075799">
        <ele>120.0</ele>
        <time>2013-01-27T10:36:24Z</time>
      </trkpt>
      <trkpt lat="57.824397" lon="12.075487">
        <ele>119.0</ele>
        <time>2013-01-27T10:36:29Z</time>
      </trkpt>
      <trkpt lat="57.824398" lon="12.075294">
        <ele>118.0</ele>
        <time>2013-01-27T10:36:34Z</time>
      </trkpt>
      <trkpt lat="57.824424" lon="12.075047">
        <ele>119.0</ele>
        <time>2013-01-27T10:36:38Z</time>
      </trkpt>
      <trkpt lat="57.824404" lon="12.074726">
        <ele>120.0</ele>
        <time>2013-01-27T10:36:42Z</time>
      </trkpt>
      <trkpt lat="57.824386" lon="12.074451">
        <ele>120.0</ele>
        <time>2013-01-27T10:36:47Z</time>
      </trkpt>
      <trkpt lat="57.824377" lon="12.074234">
        <ele>120.0</ele>
        <time>2013-01-27T10:36:51Z</time>
      </trkpt>
      <trkpt lat="57.824356" lon="12.074087">
        <ele>120.0</ele>
        <time>2013-01-27T10:36:59Z</time>
      </trkpt>
      <trkpt lat="57.82431" lon="12.074004">
        <ele>120.0</ele>
        <time>2013-01-27T10:37:04Z</time>
      </trkpt>
      <trkpt lat="57.824217" lon="12.073879">
        <ele>120.0</ele>
        <time>2013-01-27T10:37:08Z</time>
      </trkpt>
      <trkpt lat="57.82412" lon="12.073832">
        <ele>120.0</ele>
        <time>2013-01-27T10:37:13Z</time>
      </trkpt>
      <trkpt lat="57.824106" lon="12.073681">
        <ele>118.0</ele>
        <time>2013-01-27T10:37:21Z</time>
      </trkpt>
      <trkpt lat="57.824139" lon="12.073528">
        <ele>113.0</ele>
        <time>2013-01-27T10:38:00Z</time>
      </trkpt>
      <trkpt lat="57.824104" lon="12.073383">
        <ele>114.0</ele>
        <time>2013-01-27T10:38:06Z</time>
      </trkpt>
      <trkpt lat="57.824071" lon="12.073264">
        <ele>111.0</ele>
        <time>2013-01-27T10:44:24Z</time>
      </trkpt>
      <trkpt lat="57.824156" lon="12.073316">
        <ele>110.0</ele>
        <time>2013-01-27T10:47:21Z</time>
      </trkpt>
      <trkpt lat="57.824071" lon="12.073289">
        <ele>111.0</ele>
        <time>2013-01-27T10:48:13Z</time>
      </trkpt>
      <trkpt lat="57.824078" lon="12.073302">
        <ele>111.0</ele>
        <time>2013-01-27T10:50:16Z</time>
      </trkpt>
      <trkpt lat="57.82417" lon="12.073248">
        <ele>123.0</ele>
        <time>2013-01-27T10:50:20Z</time>
      </trkpt>
      <trkpt lat="57.824114" lon="12.07336">
        <ele>112.0</ele>
        <time>2013-01-27T10:50:59Z</time>
      </trkpt>
      <trkpt lat="57.82404" lon="12.073267">
        <ele>113.0</ele>
        <time>2013-01-27T10:53:34Z</time>
      </trkpt>
      <trkpt lat="57.824078" lon="12.073137">
        <ele>115.0</ele>
        <time>2013-01-27T10:54:33Z</time>
      </trkpt>
      <trkpt lat="57.824125" lon="12.073006">
        <ele>114.0</ele>
        <time>2013-01-27T10:54:38Z</time>
      </trkpt>
      <trkpt lat="57.824163" lon="12.072848">
        <ele>114.0</ele>
        <time>2013-01-27T10:54:45Z</time>
      </trkpt>
      <trkpt lat="57.824201" lon="12.072709">
        <ele>114.0</ele>
        <time>2013-01-27T10:54:50Z</time>
      </trkpt>
      <trkpt lat="57.824221" lon="12.072523">
        <ele>114.0</ele>
        <time>2013-01-27T10:54:55Z</time>
      </trkpt>
      <trkpt lat="57.824225" lon="12.072385">
        <ele>114.0</ele>
        <time>2013-01-27T10:55:00Z</time>
      </trkpt>
      <trkpt lat="57.824266" lon="12.072248">
        <ele>113.0</ele>
        <time>2013-01-27T10:55:07Z</time>
      </trkpt>
      <trkpt lat="57.824323" lon="12.072135">
        <ele>112.0</ele>
        <time>2013-01-27T10:55:14Z</time>
      </trkpt>
      <trkpt lat="57.824341" lon="12.071995">
        <ele>112.0</ele>
        <time>2013-01-27T10:55:19Z</time>
      </trkpt>
      <trkpt lat="57.824351" lon="12.071828">
        <ele>112.0</ele>
        <time>2013-01-27T10:55:26Z</time>
      </trkpt>
      <trkpt lat="57.824381" lon="12.071674">
        <ele>111.0</ele>
        <time>2013-01-27T10:55:32Z</time>
      </trkpt>
      <trkpt lat="57.824351" lon="12.071513">
        <ele>112.0</ele>
        <time>2013-01-27T10:55:36Z</time>
      </trkpt>
      <trkpt lat="57.824316" lon="12.071368">
        <ele>113.0</ele>
        <time>2013-01-27T10:55:41Z</time>
      </trkpt>
      <trkpt lat="57.824337" lon="12.071211">
        <ele>112.0</ele>
        <time>2013-01-27T10:55:47Z</time>
      </trkpt>
      <trkpt lat="57.824404" lon="12.071146">
        <ele>110.0</ele>
        <time>2013-01-27T10:56:22Z</time>
      </trkpt>
      <trkpt lat="57.824509" lon="12.071104">
        <ele>110.0</ele>
        <time>2013-01-27T10:56:26Z</time>
      </trkpt>
      <trkpt lat="57.824591" lon="12.07102">
        <ele>111.0</ele>
        <time>2013-01-27T10:56:30Z</time>
      </trkpt>
      <trkpt lat="57.824689" lon="12.070867">
        <ele>112.0</ele>
        <time>2013-01-27T10:56:35Z</time>
      </trkpt>
      <trkpt lat="57.824782" lon="12.070726">
        <ele>111.0</ele>
        <time>2013-01-27T10:56:40Z</time>
      </trkpt>
      <trkpt lat="57.824814" lon="12.070549">
        <ele>111.0</ele>
        <time>2013-01-27T10:56:44Z</time>
      </trkpt>
      <trkpt lat="57.824864" lon="12.070374">
        <ele>111.0</ele>
        <time>2013-01-27T10:56:48Z</time>
      </trkpt>
      <trkpt lat="57.824933" lon="12.07025">
        <ele>111.0</ele>
        <time>2013-01-27T10:56:52Z</time>
      </trkpt>
      <trkpt lat="57.825052" lon="12.070192">
        <ele>111.0</ele>
        <time>2013-01-27T10:56:56Z</time>
      </trkpt>
      <trkpt lat="57.82513" lon="12.070169">
        <ele>113.0</ele>
        <time>2013-01-27T10:57:01Z</time>
      </trkpt>
      <trkpt lat="57.825215" lon="12.070115">
        <ele>113.0</ele>
        <time>2013-01-27T10:57:06Z</time>
      </trkpt>
      <trkpt lat="57.825307" lon="12.07004">
        <ele>112.0</ele>
        <time>2013-01-27T10:57:10Z</time>
      </trkpt>
      <trkpt lat="57.825386" lon="12.070008">
        <ele>112.0</ele>
        <time>2013-01-27T10:57:16Z</time>
      </trkpt>
      <trkpt lat="57.825475" lon="12.069907">
        <ele>110.0</ele>
        <time>2013-01-27T10:57:21Z</time>
      </trkpt>
      <trkpt lat="57.825565" lon="12.06982">
        <ele>110.0</ele>
        <time>2013-01-27T10:57:25Z</time>
      </trkpt>
      <trkpt lat="57.825575" lon="12.069668">
        <ele>113.0</ele>
        <time>2013-01-27T10:57:32Z</time>
      </trkpt>
      <trkpt lat="57.825586" lon="12.069507">
        <ele>122.0</ele>
        <time>2013-01-27T10:57:46Z</time>
      </trkpt>
      <trkpt lat="57.825599" lon="12.069352">
        <ele>126.0</ele>
        <time>2013-01-27T10:58:16Z</time>
      </trkpt>
      <trkpt lat="57.825612" lon="12.069202">
        <ele>126.0</ele>
        <time>2013-01-27T10:58:26Z</time>
      </trkpt>
      <trkpt lat="57.825584" lon="12.069058">
        <ele>126.0</ele>
        <time>2013-01-27T10:58:38Z</time>
      </trkpt>
      <trkpt lat="57.825562" lon="12.068905">
        <ele>127.0</ele>
        <time>2013-01-27T10:58:48Z</time>
      </trkpt>
      <trkpt lat="57.82557" lon="12.068755">
        <ele>127.0</ele>
        <time>2013-01-27T10:59:02Z</time>
      </trkpt>
      <trkpt lat="57.82553" lon="12.06862">
        <ele>132.0</ele>
        <time>2013-01-27T10:59:56Z</time>
      </trkpt>
      <trkpt lat="57.825597" lon="12.068313">
        <ele>130.0</ele>
        <time>2013-01-27T11:00:01Z</time>
      </trkpt>
      <trkpt lat="57.825609" lon="12.06814">
        <ele>129.0</ele>
        <time>2013-01-27T11:00:05Z</time>
      </trkpt>
      <trkpt lat="57.825607" lon="12.067944">
        <ele>128.0</ele>
        <time>2013-01-27T11:00:10Z</time>
      </trkpt>
      <trkpt lat="57.825598" lon="12.067807">
        <ele>128.0</ele>
        <time>2013-01-27T11:00:16Z</time>
      </trkpt>
      <trkpt lat="57.825528" lon="12.067605">
        <ele>129.0</ele>
        <time>2013-01-27T11:00:21Z</time>
      </trkpt>
      <trkpt lat="57.825492" lon="12.067411">
        <ele>128.0</ele>
        <time>2013-01-27T11:00:25Z</time>
      </trkpt>
      <trkpt lat="57.825449" lon="12.067221">
        <ele>127.0</ele>
        <time>2013-01-27T11:00:30Z</time>
      </trkpt>
      <trkpt lat="57.825401" lon="12.067076">
        <ele>128.0</ele>
        <time>2013-01-27T11:00:34Z</time>
      </trkpt>
      <trkpt lat="57.82532" lon="12.066867">
        <ele>128.0</ele>
        <time>2013-01-27T11:00:38Z</time>
      </trkpt>
      <trkpt lat="57.825257" lon="12.066726">
        <ele>128.0</ele>
        <time>2013-01-27T11:00:42Z</time>
      </trkpt>
      <trkpt lat="57.825136" lon="12.066568">
        <ele>128.0</ele>
        <time>2013-01-27T11:00:47Z</time>
      </trkpt>
      <trkpt lat="57.825052" lon="12.066473">
        <ele>129.0</ele>
        <time>2013-01-27T11:00:51Z</time>
      </trkpt>
      <trkpt lat="57.824979" lon="12.066381">
        <ele>130.0</ele>
        <time>2013-01-27T11:00:55Z</time>
      </trkpt>
      <trkpt lat="57.824904" lon="12.066295">
        <ele>130.0</ele>
        <time>2013-01-27T11:01:03Z</time>
      </trkpt>
      <trkpt lat="57.824851" lon="12.06622">
        <ele>129.0</ele>
        <time>2013-01-27T11:01:08Z</time>
      </trkpt>
      <trkpt lat="57.824783" lon="12.066113">
        <ele>128.0</ele>
        <time>2013-01-27T11:01:13Z</time>
      </trkpt>
      <trkpt lat="57.824758" lon="12.065956">
        <ele>127.0</ele>
        <time>2013-01-27T11:01:19Z</time>
      </trkpt>
      <trkpt lat="57.824774" lon="12.065802">
        <ele>126.0</ele>
        <time>2013-01-27T11:01:26Z</time>
      </trkpt>
      <trkpt lat="57.824762" lon="12.065633">
        <ele>125.0</ele>
        <time>2013-01-27T11:01:31Z</time>
      </trkpt>
      <trkpt lat="57.824788" lon="12.065496">
        <ele>123.0</ele>
        <time>2013-01-27T11:01:36Z</time>
      </trkpt>
      <trkpt lat="57.824764" lon="12.065359">
        <ele>121.0</ele>
        <time>2013-01-27T11:01:41Z</time>
      </trkpt>
      <trkpt lat="57.824765" lon="12.065226">
        <ele>120.0</ele>
        <time>2013-01-27T11:01:46Z</time>
      </trkpt>
      <trkpt lat="57.824684" lon="12.065152">
        <ele>118.0</ele>
        <time>2013-01-27T11:01:51Z</time>
      </trkpt>
      <trkpt lat="57.824604" lon="12.065114">
        <ele>118.0</ele>
        <time>2013-01-27T11:01:56Z</time>
      </trkpt>
      <trkpt lat="57.824518" lon="12.065174">
        <ele>119.0</ele>
        <time>2013-01-27T11:02:01Z</time>
      </trkpt>
      <trkpt lat="57.824456" lon="12.065077">
        <ele>116.0</ele>
        <time>2013-01-27T11:02:27Z</time>
      </trkpt>
      <trkpt lat="57.824387" lon="12.06499">
        <ele>116.0</ele>
        <time>2013-01-27T11:02:31Z</time>
      </trkpt>
      <trkpt lat="57.824321" lon="12.064894">
        <ele>118.0</ele>
        <time>2013-01-27T11:02:38Z</time>
      </trkpt>
      <trkpt lat="57.824312" lon="12.064738">
        <ele>116.0</ele>
        <time>2013-01-27T11:03:14Z</time>
      </trkpt>
      <trkpt lat="57.824251" lon="12.064698">
        <ele>115.0</ele>
        <time>2013-01-27T11:03:57Z</time>
      </trkpt>
      <trkpt lat="57.824128" lon="12.064633">
        <ele>114.0</ele>
        <time>2013-01-27T11:04:01Z</time>
      </trkpt>
      <trkpt lat="57.82404" lon="12.064611">
        <ele>113.0</ele>
        <time>2013-01-27T11:04:06Z</time>
      </trkpt>
      <trkpt lat="57.823965" lon="12.064623">
        <ele>113.0</ele>
        <time>2013-01-27T11:04:24Z</time>
      </trkpt>
      <trkpt lat="57.823876" lon="12.064611">
        <ele>113.0</ele>
        <time>2013-01-27T11:04:34Z</time>
      </trkpt>
      <trkpt lat="57.823794" lon="12.064616">
        <ele>112.0</ele>
        <time>2013-01-27T11:04:38Z</time>
      </trkpt>
      <trkpt lat="57.823693" lon="12.064663">
        <ele>111.0</ele>
        <time>2013-01-27T11:04:42Z</time>
      </trkpt>
      <trkpt lat="57.823621" lon="12.06465">
        <ele>110.0</ele>
        <time>2013-01-27T11:04:47Z</time>
      </trkpt>
      <trkpt lat="57.823532" lon="12.064639">
        <ele>109.0</ele>
        <time>2013-01-27T11:04:52Z</time>
      </trkpt>
      <trkpt lat="57.823441" lon="12.064609">
        <ele>108.0</ele>
        <time>2013-01-27T11:04:57Z</time>
      </trkpt>
      <trkpt lat="57.823348" lon="12.064671">
        <ele>107.0</ele>
        <time>2013-01-27T11:05:01Z</time>
      </trkpt>
      <trkpt lat="57.823202" lon="12.064787">
        <ele>106.0</ele>
        <time>2013-01-27T11:05:06Z</time>
      </trkpt>
      <trkpt lat="57.823111" lon="12.064845">
        <ele>106.0</ele>
        <time>2013-01-27T11:05:11Z</time>
      </trkpt>
      <trkpt lat="57.823036" lon="12.064911">
        <ele>106.0</ele>
        <time>2013-01-27T11:05:15Z</time>
      </trkpt>
      <trkpt lat="57.822966" lon="12.064978">
        <ele>105.0</ele>
        <time>2013-01-27T11:05:20Z</time>
      </trkpt>
      <trkpt lat="57.822883" lon="12.065053">
        <ele>107.0</ele>
        <time>2013-01-27T11:05:27Z</time>
      </trkpt>
      <trkpt lat="57.822831" lon="12.065094">
        <ele>106.0</ele>
        <time>2013-01-27T11:05:33Z</time>
      </trkpt>
      <trkpt lat="57.822741" lon="12.065184">
        <ele>106.0</ele>
        <time>2013-01-27T11:05:37Z</time>
      </trkpt>
      <trkpt lat="57.822621" lon="12.065175">
        <ele>105.0</ele>
        <time>2013-01-27T11:05:42Z</time>
      </trkpt>
      <trkpt lat="57.822548" lon="12.065141">
        <ele>104.0</ele>
        <time>2013-01-27T11:05:46Z</time>
      </trkpt>
      <trkpt lat="57.822448" lon="12.065105">
        <ele>104.0</ele>
        <time>2013-01-27T11:05:50Z</time>
      </trkpt>
      <trkpt lat="57.822298" lon="12.065075">
        <ele>104.0</ele>
        <time>2013-01-27T11:05:55Z</time>
      </trkpt>
      <trkpt lat="57.822173" lon="12.065006">
        <ele>104.0</ele>
        <time>2013-01-27T11:06:00Z</time>
      </trkpt>
      <trkpt lat="57.822079" lon="12.064949">
        <ele>105.0</ele>
        <time>2013-01-27T11:06:04Z</time>
      </trkpt>
      <trkpt lat="57.821997" lon="12.064987">
        <ele>105.0</ele>
        <time>2013-01-27T11:06:08Z</time>
      </trkpt>
      <trkpt lat="57.821896" lon="12.065111">
        <ele>109.0</ele>
        <time>2013-01-27T11:06:13Z</time>
      </trkpt>
      <trkpt lat="57.821813" lon="12.065117">
        <ele>111.0</ele>
        <time>2013-01-27T11:06:25Z</time>
      </trkpt>
      <trkpt lat="57.82175" lon="12.065006">
        <ele>111.0</ele>
        <time>2013-01-27T11:06:39Z</time>
      </trkpt>
      <trkpt lat="57.821703" lon="12.064882">
        <ele>112.0</ele>
        <time>2013-01-27T11:06:54Z</time>
      </trkpt>
      <trkpt lat="57.821684" lon="12.064718">
        <ele>111.0</ele>
        <time>2013-01-27T11:07:07Z</time>
      </trkpt>
      <trkpt lat="57.82164" lon="12.064596">
        <ele>111.0</ele>
        <time>2013-01-27T11:07:22Z</time>
      </trkpt>
      <trkpt lat="57.82156" lon="12.064574">
        <ele>114.0</ele>
        <time>2013-01-27T11:07:36Z</time>
      </trkpt>
      <trkpt lat="57.821487" lon="12.06454">
        <ele>118.0</ele>
        <time>2013-01-27T11:09:57Z</time>
      </trkpt>
      <trkpt lat="57.821414" lon="12.064577">
        <ele>118.0</ele>
        <time>2013-01-27T11:10:03Z</time>
      </trkpt>
      <trkpt lat="57.821324" lon="12.064637">
        <ele>118.0</ele>
        <time>2013-01-27T11:10:07Z</time>
      </trkpt>
      <trkpt lat="57.821223" lon="12.064773">
        <ele>119.0</ele>
        <time>2013-01-27T11:10:12Z</time>
      </trkpt>
      <trkpt lat="57.82116" lon="12.064956">
        <ele>119.0</ele>
        <time>2013-01-27T11:10:17Z</time>
      </trkpt>
      <trkpt lat="57.821129" lon="12.065128">
        <ele>121.0</ele>
        <time>2013-01-27T11:10:21Z</time>
      </trkpt>
      <trkpt lat="57.821098" lon="12.065258">
        <ele>120.0</ele>
        <time>2013-01-27T11:10:26Z</time>
      </trkpt>
      <trkpt lat="57.821031" lon="12.065253">
        <ele>120.0</ele>
        <time>2013-01-27T11:10:31Z</time>
      </trkpt>
      <trkpt lat="57.820954" lon="12.065278">
        <ele>120.0</ele>
        <time>2013-01-27T11:10:35Z</time>
      </trkpt>
      <trkpt lat="57.820877" lon="12.065303">
        <ele>120.0</ele>
        <time>2013-01-27T11:10:39Z</time>
      </trkpt>
      <trkpt lat="57.820797" lon="12.065276">
        <ele>119.0</ele>
        <time>2013-01-27T11:10:43Z</time>
      </trkpt>
      <trkpt lat="57.820721" lon="12.065275">
        <ele>117.0</ele>
        <time>2013-01-27T11:10:48Z</time>
      </trkpt>
      <trkpt lat="57.820637" lon="12.065291">
        <ele>117.0</ele>
        <time>2013-01-27T11:10:53Z</time>
      </trkpt>
      <trkpt lat="57.820566" lon="12.065184">
        <ele>115.0</ele>
        <time>2013-01-27T11:10:59Z</time>
      </trkpt>
      <trkpt lat="57.820514" lon="12.065071">
        <ele>117.0</ele>
        <time>2013-01-27T11:11:14Z</time>
      </trkpt>
      <trkpt lat="57.820465" lon="12.064934">
        <ele>118.0</ele>
        <time>2013-01-27T11:11:26Z</time>
      </trkpt>
      <trkpt lat="57.820403" lon="12.064852">
        <ele>119.0</ele>
        <time>2013-01-27T11:11:36Z</time>
      </trkpt>
      <trkpt lat="57.820325" lon="12.064786">
        <ele>119.0</ele>
        <time>2013-01-27T11:11:42Z</time>
      </trkpt>
      <trkpt lat="57.820246" lon="12.064727">
        <ele>120.0</ele>
        <time>2013-01-27T11:11:47Z</time>
      </trkpt>
      <trkpt lat="57.820179" lon="12.064646">
        <ele>121.0</ele>
        <time>2013-01-27T11:11:51Z</time>
      </trkpt>
      <trkpt lat="57.820125" lon="12.064531">
        <ele>122.0</ele>
        <time>2013-01-27T11:12:00Z</time>
      </trkpt>
      <trkpt lat="57.82012" lon="12.064373">
        <ele>121.0</ele>
        <time>2013-01-27T11:12:14Z</time>
      </trkpt>
      <trkpt lat="57.820096" lon="12.064236">
        <ele>122.0</ele>
        <time>2013-01-27T11:12:23Z</time>
      </trkpt>
      <trkpt lat="57.820025" lon="12.0641">
        <ele>122.0</ele>
        <time>2013-01-27T11:12:28Z</time>
      </trkpt>
      <trkpt lat="57.819965" lon="12.063969">
        <ele>123.0</ele>
        <time>2013-01-27T11:12:33Z</time>
      </trkpt>
      <trkpt lat="57.81995" lon="12.063816">
        <ele>124.0</ele>
        <time>2013-01-27T11:12:44Z</time>
      </trkpt>
      <trkpt lat="57.819917" lon="12.063669">
        <ele>126.0</ele>
        <time>2013-01-27T11:12:56Z</time>
      </trkpt>
      <trkpt lat="57.819894" lon="12.063523">
        <ele>126.0</ele>
        <time>2013-01-27T11:13:04Z</time>
      </trkpt>
      <trkpt lat="57.819892" lon="12.063334">
        <ele>126.0</ele>
        <time>2013-01-27T11:13:09Z</time>
      </trkpt>
      <trkpt lat="57.819903" lon="12.063151">
        <ele>126.0</ele>
        <time>2013-01-27T11:13:13Z</time>
      </trkpt>
      <trkpt lat="57.819921" lon="12.062973">
        <ele>126.0</ele>
        <time>2013-01-27T11:13:17Z</time>
      </trkpt>
      <trkpt lat="57.819926" lon="12.062621">
        <ele>125.0</ele>
        <time>2013-01-27T11:13:22Z</time>
      </trkpt>
      <trkpt lat="57.819962" lon="12.06238">
        <ele>124.0</ele>
        <time>2013-01-27T11:13:26Z</time>
      </trkpt>
      <trkpt lat="57.819893" lon="12.062205">
        <ele>124.0</ele>
        <time>2013-01-27T11:13:30Z</time>
      </trkpt>
      <trkpt lat="57.819826" lon="12.062057">
        <ele>123.0</ele>
        <time>2013-01-27T11:13:34Z</time>
      </trkpt>
      <trkpt lat="57.819737" lon="12.0619">
        <ele>123.0</ele>
        <time>2013-01-27T11:13:39Z</time>
      </trkpt>
      <trkpt lat="57.819657" lon="12.061818">
        <ele>123.0</ele>
        <time>2013-01-27T11:13:43Z</time>
      </trkpt>
      <trkpt lat="57.819572" lon="12.061716">
        <ele>123.0</ele>
        <time>2013-01-27T11:13:48Z</time>
      </trkpt>
      <trkpt lat="57.819497" lon="12.061629">
        <ele>124.0</ele>
        <time>2013-01-27T11:13:52Z</time>
      </trkpt>
      <trkpt lat="57.819412" lon="12.061587">
        <ele>124.0</ele>
        <time>2013-01-27T11:14:05Z</time>
      </trkpt>
      <trkpt lat="57.819346" lon="12.061523">
        <ele>124.0</ele>
        <time>2013-01-27T11:14:15Z</time>
      </trkpt>
      <trkpt lat="57.819305" lon="12.061394">
        <ele>131.0</ele>
        <time>2013-01-27T11:17:47Z</time>
      </trkpt>
      <trkpt lat="57.819331" lon="12.061181">
        <ele>131.0</ele>
        <time>2013-01-27T11:17:52Z</time>
      </trkpt>
      <trkpt lat="57.819351" lon="12.061021">
        <ele>131.0</ele>
        <time>2013-01-27T11:17:57Z</time>
      </trkpt>
      <trkpt lat="57.819422" lon="12.060827">
        <ele>127.0</ele>
        <time>2013-01-27T11:18:02Z</time>
      </trkpt>
      <trkpt lat="57.819517" lon="12.060557">
        <ele>125.0</ele>
        <time>2013-01-27T11:18:06Z</time>
      </trkpt>
      <trkpt lat="57.819641" lon="12.060366">
        <ele>124.0</ele>
        <time>2013-01-27T11:18:11Z</time>
      </trkpt>
      <trkpt lat="57.819752" lon="12.059895">
        <ele>122.0</ele>
        <time>2013-01-27T11:18:15Z</time>
      </trkpt>
      <trkpt lat="57.819997" lon="12.05919">
        <ele>119.0</ele>
        <time>2013-01-27T11:18:20Z</time>
      </trkpt>
      <trkpt lat="57.820246" lon="12.058846">
        <ele>119.0</ele>
        <time>2013-01-27T11:18:24Z</time>
      </trkpt>
      <trkpt lat="57.820415" lon="12.058603">
        <ele>119.0</ele>
        <time>2013-01-27T11:18:28Z</time>
      </trkpt>
      <trkpt lat="57.82059" lon="12.058299">
        <ele>118.0</ele>
        <time>2013-01-27T11:18:32Z</time>
      </trkpt>
      <trkpt lat="57.82062" lon="12.058102">
        <ele>117.0</ele>
        <time>2013-01-27T11:18:36Z</time>
      </trkpt>
      <trkpt lat="57.820598" lon="12.057951">
        <ele>117.0</ele>
        <time>2013-01-27T11:18:44Z</time>
      </trkpt>
      <trkpt lat="57.820569" lon="12.057806">
        <ele>116.0</ele>
        <time>2013-01-27T11:18:53Z</time>
      </trkpt>
      <trkpt lat="57.820502" lon="12.057698">
        <ele>115.0</ele>
        <time>2013-01-27T11:18:59Z</time>
      </trkpt>
      <trkpt lat="57.820528" lon="12.057553">
        <ele>114.0</ele>
        <time>2013-01-27T11:19:04Z</time>
      </trkpt>
      <trkpt lat="57.820505" lon="12.057401">
        <ele>113.0</ele>
        <time>2013-01-27T11:19:09Z</time>
      </trkpt>
      <trkpt lat="57.820483" lon="12.057268">
        <ele>113.0</ele>
        <time>2013-01-27T11:19:13Z</time>
      </trkpt>
      <trkpt lat="57.820477" lon="12.057037">
        <ele>112.0</ele>
        <time>2013-01-27T11:19:17Z</time>
      </trkpt>
      <trkpt lat="57.820459" lon="12.056883">
        <ele>111.0</ele>
        <time>2013-01-27T11:19:27Z</time>
      </trkpt>
      <trkpt lat="57.820398" lon="12.05678">
        <ele>109.0</ele>
        <time>2013-01-27T11:19:45Z</time>
      </trkpt>
      <trkpt lat="57.820334" lon="12.056659">
        <ele>109.0</ele>
        <time>2013-01-27T11:20:00Z</time>
      </trkpt>
      <trkpt lat="57.82028" lon="12.056543">
        <ele>109.0</ele>
        <time>2013-01-27T11:20:17Z</time>
      </trkpt>
      <trkpt lat="57.820234" lon="12.056407">
        <ele>110.0</ele>
        <time>2013-01-27T11:20:47Z</time>
      </trkpt>
      <trkpt lat="57.820169" lon="12.056289">
        <ele>110.0</ele>
        <time>2013-01-27T11:21:21Z</time>
      </trkpt>
      <trkpt lat="57.820175" lon="12.056134">
        <ele>110.0</ele>
        <time>2013-01-27T11:21:30Z</time>
      </trkpt>
      <trkpt lat="57.820188" lon="12.055979">
        <ele>110.0</ele>
        <time>2013-01-27T11:21:57Z</time>
      </trkpt>
      <trkpt lat="57.820202" lon="12.055853">
        <ele>110.0</ele>
        <time>2013-01-27T11:22:07Z</time>
      </trkpt>
      <trkpt lat="57.82021" lon="12.055711">
        <ele>111.0</ele>
        <time>2013-01-27T11:22:10Z</time>
      </trkpt>
      <trkpt lat="57.820245" lon="12.055498">
        <ele>113.0</ele>
        <time>2013-01-27T11:22:14Z</time>
      </trkpt>
      <trkpt lat="57.820215" lon="12.055334">
        <ele>112.0</ele>
        <time>2013-01-27T11:22:18Z</time>
      </trkpt>
      <trkpt lat="57.820153" lon="12.055206">
        <ele>108.0</ele>
        <time>2013-01-27T11:22:54Z</time>
      </trkpt>
      <trkpt lat="57.820084" lon="12.05518">
        <ele>108.0</ele>
        <time>2013-01-27T11:24:22Z</time>
      </trkpt>
      <trkpt lat="57.819901" lon="12.055203">
        <ele>107.0</ele>
        <time>2013-01-27T11:24:27Z</time>
      </trkpt>
      <trkpt lat="57.819808" lon="12.055127">
        <ele>107.0</ele>
        <time>2013-01-27T11:24:31Z</time>
      </trkpt>
      <trkpt lat="57.819728" lon="12.055013">
        <ele>107.0</ele>
        <time>2013-01-27T11:24:36Z</time>
      </trkpt>
      <trkpt lat="57.819643" lon="12.054951">
        <ele>107.0</ele>
        <time>2013-01-27T11:24:40Z</time>
      </trkpt>
      <trkpt lat="57.819572" lon="12.05487">
        <ele>107.0</ele>
        <time>2013-01-27T11:24:44Z</time>
      </trkpt>
      <trkpt lat="57.819496" lon="12.054803">
        <ele>108.0</ele>
        <time>2013-01-27T11:24:55Z</time>
      </trkpt>
      <trkpt lat="57.819428" lon="12.054725">
        <ele>109.0</ele>
        <time>2013-01-27T11:25:06Z</time>
      </trkpt>
      <trkpt lat="57.819351" lon="12.054636">
        <ele>111.0</ele>
        <time>2013-01-27T11:25:16Z</time>
      </trkpt>
      <trkpt lat="57.819296" lon="12.054571">
        <ele>114.0</ele>
        <time>2013-01-27T11:25:40Z</time>
      </trkpt>
      <trkpt lat="57.819214" lon="12.054316">
        <ele>113.0</ele>
        <time>2013-01-27T11:25:44Z</time>
      </trkpt>
      <trkpt lat="57.819178" lon="12.054169">
        <ele>112.0</ele>
        <time>2013-01-27T11:25:48Z</time>
      </trkpt>
      <trkpt lat="57.819017" lon="12.05419">
        <ele>113.0</ele>
        <time>2013-01-27T11:25:53Z</time>
      </trkpt>
      <trkpt lat="57.818842" lon="12.054328">
        <ele>112.0</ele>
        <time>2013-01-27T11:25:57Z</time>
      </trkpt>
      <trkpt lat="57.818659" lon="12.054227">
        <ele>111.0</ele>
        <time>2013-01-27T11:26:02Z</time>
      </trkpt>
      <trkpt lat="57.818456" lon="12.054225">
        <ele>112.0</ele>
        <time>2013-01-27T11:26:06Z</time>
      </trkpt>
      <trkpt lat="57.81832" lon="12.054084">
        <ele>110.0</ele>
        <time>2013-01-27T11:26:11Z</time>
      </trkpt>
      <trkpt lat="57.818139" lon="12.054115">
        <ele>108.0</ele>
        <time>2013-01-27T11:26:16Z</time>
      </trkpt>
      <trkpt lat="57.818003" lon="12.054152">
        <ele>107.0</ele>
        <time>2013-01-27T11:26:20Z</time>
      </trkpt>
      <trkpt lat="57.817835" lon="12.054126">
        <ele>107.0</ele>
        <time>2013-01-27T11:26:24Z</time>
      </trkpt>
      <trkpt lat="57.817572" lon="12.053998">
        <ele>106.0</ele>
        <time>2013-01-27T11:26:29Z</time>
      </trkpt>
      <trkpt lat="57.817475" lon="12.053777">
        <ele>107.0</ele>
        <time>2013-01-27T11:26:33Z</time>
      </trkpt>
      <trkpt lat="57.81737" lon="12.053507">
        <ele>107.0</ele>
        <time>2013-01-27T11:26:37Z</time>
      </trkpt>
      <trkpt lat="57.817245" lon="12.053361">
        <ele>107.0</ele>
        <time>2013-01-27T11:26:41Z</time>
      </trkpt>
      <trkpt lat="57.817118" lon="12.053234">
        <ele>107.0</ele>
        <time>2013-01-27T11:26:45Z</time>
      </trkpt>
      <trkpt lat="57.816944" lon="12.053008">
        <ele>105.0</ele>
        <time>2013-01-27T11:26:50Z</time>
      </trkpt>
      <trkpt lat="57.816739" lon="12.052701">
        <ele>105.0</ele>
        <time>2013-01-27T11:26:54Z</time>
      </trkpt>
      <trkpt lat="57.816506" lon="12.05259">
        <ele>104.0</ele>
        <time>2013-01-27T11:26:58Z</time>
      </trkpt>
      <trkpt lat="57.816233" lon="12.052484">
        <ele>103.0</ele>
        <time>2013-01-27T11:27:02Z</time>
      </trkpt>
      <trkpt lat="57.81596" lon="12.052446">
        <ele>103.0</ele>
        <time>2013-01-27T11:27:07Z</time>
      </trkpt>
      <trkpt lat="57.815732" lon="12.052355">
        <ele>101.0</ele>
        <time>2013-01-27T11:27:12Z</time>
      </trkpt>
      <trkpt lat="57.815474" lon="12.052232">
        <ele>100.0</ele>
        <time>2013-01-27T11:27:16Z</time>
      </trkpt>
      <trkpt lat="57.815272" lon="12.052392">
        <ele>100.0</ele>
        <time>2013-01-27T11:27:20Z</time>
      </trkpt>
      <trkpt lat="57.815079" lon="12.052528">
        <ele>99.0</ele>
        <time>2013-01-27T11:27:24Z</time>
      </trkpt>
      <trkpt lat="57.814833" lon="12.052647">
        <ele>98.0</ele>
        <time>2013-01-27T11:27:29Z</time>
      </trkpt>
      <trkpt lat="57.814657" lon="12.052812">
        <ele>97.0</ele>
        <time>2013-01-27T11:27:33Z</time>
      </trkpt>
      <trkpt lat="57.814455" lon="12.052971">
        <ele>97.0</ele>
        <time>2013-01-27T11:27:38Z</time>
      </trkpt>
      <trkpt lat="57.814314" lon="12.053104">
        <ele>97.0</ele>
        <time>2013-01-27T11:27:42Z</time>
      </trkpt>
      <trkpt lat="57.81415" lon="12.053185">
        <ele>97.0</ele>
        <time>2013-01-27T11:27:47Z</time>
      </trkpt>
      <trkpt lat="57.813984" lon="12.053363">
        <ele>97.0</ele>
        <time>2013-01-27T11:27:52Z</time>
      </trkpt>
      <trkpt lat="57.813812" lon="12.053276">
        <ele>97.0</ele>
        <time>2013-01-27T11:27:56Z</time>
      </trkpt>
      <trkpt lat="57.813696" lon="12.053115">
        <ele>98.0</ele>
        <time>2013-01-27T11:28:01Z</time>
      </trkpt>
      <trkpt lat="57.813647" lon="12.05298">
        <ele>99.0</ele>
        <time>2013-01-27T11:28:06Z</time>
      </trkpt>
      <trkpt lat="57.813723" lon="12.052939">
        <ele>99.0</ele>
        <time>2013-01-27T11:28:13Z</time>
      </trkpt>
      <trkpt lat="57.813748" lon="12.052817">
        <ele>97.0</ele>
        <time>2013-01-27T11:28:55Z</time>
      </trkpt>
      <trkpt lat="57.813748" lon="12.052817">
        <ele>97.0</ele>
        <time>2013-01-27T11:28:56Z</time>
      </trkpt>
    </trkseg>
  </trk>
</gpx>
